Wetterdaten: aktuell Samstag, 03.06.2023 16:16
Datum Zeit Temp. 5cm Temp. Bachw Temp. APlatz Temp. 2m Feuchte BW Feuchte AP Luftfeuchte Luftdruck Regen Wind Richtung Richtung Taupunkt Windchill Windben
03.06.2023 16:16 21,5 C 17,2 C 19,0 C 17,2 C 36 % 42 % 36 % 1020,1 hPa 0,0 l/m 5,8 km/h (2 Bft) S-SO 157 2,0 C 17,2 C 13,5 km/h (3 Bft)
03.06.2023 16:14 21,7 C 17,2 C 19,0 C 17,2 C 36 % 42 % 36 % 1020,1 hPa 0,0 l/m 6,3 km/h (2 Bft) SO 135 2,0 C 17,2 C 13,5 km/h (3 Bft)
03.06.2023 16:12 21,8 C 17,2 C 18,9 C 17,2 C 37 % 42 % 37 % 1020,1 hPa 0,0 l/m 6,4 km/h (2 Bft) W-SW 247 2,4 C 17,2 C 12,6 km/h (3 Bft)
03.06.2023 16:10 21,7 C 16,9 C 18,8 C 16,9 C 36 % 42 % 36 % 1020,1 hPa 0,0 l/m 6,3 km/h (2 Bft) O-NO 67 1,7 C 16,9 C 7,2 km/h (2 Bft)
03.06.2023 16:08 21,9 C 16,9 C 18,9 C 16,9 C 37 % 42 % 37 % 1020,0 hPa 0,0 l/m 6,4 km/h (2 Bft) O-NO 67 2,1 C 16,9 C 11,3 km/h (2 Bft)
03.06.2023 16:06 22,1 C 17,1 C 19,2 C 17,1 C 36 % 42 % 36 % 1020,0 hPa 0,0 l/m 6,6 km/h (2 Bft) O 90 1,9 C 17,1 C 11,3 km/h (2 Bft)
03.06.2023 16:04 22,4 C 17,2 C 19,2 C 17,2 C 36 % 42 % 36 % 1020,0 hPa 0,0 l/m 5,6 km/h (1 Bft) NO 45 2,0 C 17,2 C 11,1 km/h (2 Bft)
03.06.2023 16:02 23,1 C 17,2 C 19,0 C 17,2 C 37 % 42 % 37 % 1020,0 hPa 0,0 l/m 4,8 km/h (1 Bft) O-SO 112 2,4 C 17,2 C 7,0 km/h (2 Bft)
03.06.2023 16:00 23,2 C 17,0 C 19,0 C 17,0 C 36 % 42 % 36 % 1020,0 hPa 0,0 l/m 5,1 km/h (1 Bft) NO 45 1,8 C 17,0 C 16,2 km/h (3 Bft)
03.06.2023 15:58 23,4 C 17,2 C 19,0 C 17,2 C 36 % 42 % 36 % 1020,0 hPa 0,0 l/m 4,5 km/h (1 Bft) O-NO 67 2,0 C 17,2 C 16,2 km/h (3 Bft)
03.06.2023 15:56 23,5 C 17,2 C 18,9 C 17,2 C 37 % 42 % 37 % 1020,0 hPa 0,0 l/m 4,2 km/h (1 Bft) O-NO 67 2,4 C 17,2 C 11,3 km/h (2 Bft)
03.06.2023 15:54 23,5 C 17,0 C 18,7 C 17,0 C 37 % 42 % 37 % 1020,0 hPa 0,0 l/m 4,0 km/h (1 Bft) NO 45 2,2 C 17,0 C 11,8 km/h (2 Bft)
03.06.2023 15:52 23,7 C 17,2 C 18,9 C 17,2 C 36 % 41 % 36 % 1020,0 hPa 0,0 l/m 4,2 km/h (1 Bft) NO 45 2,0 C 17,2 C 11,8 km/h (2 Bft)
03.06.2023 15:50 23,8 C 17,6 C 18,9 C 17,6 C 38 % 41 % 38 % 1020,0 hPa 0,0 l/m 4,3 km/h (1 Bft) S-SO 157 3,1 C 17,6 C 9,4 km/h (2 Bft)
03.06.2023 15:48 23,9 C 17,6 C 18,9 C 17,6 C 38 % 41 % 38 % 1020,0 hPa 0,0 l/m 4,3 km/h (1 Bft) S-SO 157 3,1 C 17,6 C 7,5 km/h (2 Bft)
03.06.2023 15:46 24,0 C 17,6 C 19,4 C 17,6 C 38 % 42 % 38 % 1020,0 hPa 0,0 l/m 4,0 km/h (1 Bft) N-NO 22 3,1 C 17,6 C 10,4 km/h (2 Bft)
03.06.2023 15:44 24,2 C 17,4 C 19,2 C 17,4 C 37 % 42 % 37 % 1020,0 hPa 0,0 l/m 4,2 km/h (1 Bft) NO 45 2,6 C 17,4 C 10,4 km/h (2 Bft)
03.06.2023 15:42 24,7 C 17,4 C 19,1 C 17,4 C 37 % 42 % 37 % 1020,0 hPa 0,0 l/m 4,8 km/h (1 Bft) SO 135 2,6 C 17,4 C 11,8 km/h (2 Bft)
03.06.2023 15:40 24,6 C 17,6 C 19,1 C 17,6 C 38 % 42 % 38 % 1020,0 hPa 0,0 l/m 5,1 km/h (1 Bft) NO 45 3,1 C 17,6 C 11,8 km/h (2 Bft)
03.06.2023 15:38 24,5 C 17,5 C 19,1 C 17,5 C 38 % 42 % 38 % 1020,0 hPa 0,0 l/m 5,3 km/h (1 Bft) NO 45 3,0 C 17,5 C 11,6 km/h (2 Bft)
03.06.2023 15:36 24,1 C 17,1 C 19,1 C 17,1 C 37 % 42 % 37 % 1020,0 hPa 0,0 l/m 5,6 km/h (1 Bft) S 180 2,3 C 17,1 C 9,4 km/h (2 Bft)
03.06.2023 15:34 23,8 C 17,1 C 19,1 C 17,1 C 37 % 42 % 37 % 1020,0 hPa 0,0 l/m 5,3 km/h (1 Bft) W 270 2,3 C 17,1 C 15,7 km/h (3 Bft)
03.06.2023 15:32 23,6 C 16,8 C 19,0 C 16,8 C 36 % 42 % 36 % 1020,0 hPa 0,0 l/m 5,0 km/h (1 Bft) NO 45 1,7 C 16,8 C 15,7 km/h (3 Bft)
03.06.2023 15:30 23,8 C 16,8 C 19,0 C 16,8 C 36 % 42 % 36 % 1020,0 hPa 0,0 l/m 5,5 km/h (1 Bft) O-SO 112 1,7 C 16,8 C 19,3 km/h (3 Bft)
03.06.2023 15:28 24,5 C 17,1 C 19,1 C 17,1 C 37 % 42 % 37 % 1020,5 hPa 0,0 l/m 6,0 km/h (2 Bft) SO 135 2,3 C 17,1 C 19,3 km/h (3 Bft)
03.06.2023 15:26 24,5 C 17,3 C 19,0 C 17,3 C 38 % 42 % 38 % 1020,5 hPa 0,0 l/m 5,8 km/h (2 Bft) O-SO 112 2,9 C 17,3 C 11,8 km/h (2 Bft)
03.06.2023 15:24 24,0 C 17,2 C 19,2 C 17,2 C 38 % 42 % 38 % 1020,5 hPa 0,0 l/m 6,6 km/h (2 Bft) S-SO 157 2,8 C 17,2 C 7,0 km/h (2 Bft)
03.06.2023 15:22 23,6 C 16,7 C 19,2 C 16,7 C 37 % 42 % 37 % 1020,5 hPa 0,0 l/m 7,1 km/h (2 Bft) O-NO 67 1,9 C 16,7 C 20,3 km/h (4 Bft)
03.06.2023 15:20 23,6 C 16,7 C 19,1 C 16,7 C 36 % 42 % 36 % 1020,5 hPa 0,0 l/m 7,9 km/h (2 Bft) NO 45 1,6 C 16,7 C 20,3 km/h (4 Bft)
03.06.2023 15:18 23,6 C 16,8 C 19,1 C 16,8 C 37 % 42 % 37 % 1020,5 hPa 0,0 l/m 8,5 km/h (2 Bft) O 90 2,0 C 16,8 C 10,9 km/h (2 Bft)
03.06.2023 15:16 24,0 C 16,8 C 19,1 C 16,8 C 37 % 42 % 37 % 1020,5 hPa 0,0 l/m 9,0 km/h (2 Bft) O 90 2,0 C 16,8 C 16,2 km/h (3 Bft)
03.06.2023 15:14 24,1 C 16,7 C 19,1 C 16,7 C 37 % 42 % 37 % 1020,5 hPa 0,0 l/m 9,2 km/h (2 Bft) NO 45 1,9 C 16,7 C 16,2 km/h (3 Bft)
03.06.2023 15:12 24,0 C 16,4 C 19,3 C 16,4 C 37 % 42 % 37 % 1020,5 hPa 0,0 l/m 9,3 km/h (2 Bft) O-NO 67 1,7 C 16,4 C 17,4 km/h (3 Bft)
03.06.2023 15:10 23,9 C 16,4 C 19,3 C 16,4 C 36 % 42 % 36 % 1020,5 hPa 0,0 l/m 9,7 km/h (2 Bft) NO 45 1,3 C 16,4 C 28,5 km/h (4 Bft)
03.06.2023 15:08 23,7 C 16,9 C 19,3 C 16,9 C 37 % 42 % 37 % 1020,6 hPa 0,0 l/m 8,5 km/h (2 Bft) O 90 2,1 C 16,9 C 28,5 km/h (4 Bft)
03.06.2023 15:06 23,9 C 17,0 C 19,3 C 17,0 C 37 % 42 % 37 % 1020,6 hPa 0,0 l/m 6,9 km/h (2 Bft) W-SW 247 2,2 C 17,0 C 16,7 km/h (3 Bft)
03.06.2023 15:04 24,3 C 17,0 C 19,3 C 17,0 C 38 % 42 % 38 % 1020,6 hPa 0,0 l/m 6,6 km/h (2 Bft) NO 45 2,6 C 17,0 C 15,2 km/h (3 Bft)
03.06.2023 15:02 24,2 C 16,8 C 19,4 C 16,8 C 38 % 42 % 38 % 1020,6 hPa 0,0 l/m 6,6 km/h (2 Bft) NO 45 2,4 C 16,8 C 15,9 km/h (3 Bft)
03.06.2023 15:00 24,2 C 16,6 C 19,1 C 16,6 C 38 % 42 % 38 % 1020,6 hPa 0,0 l/m 5,8 km/h (2 Bft) NO 45 2,2 C 16,6 C 7,5 km/h (2 Bft)
03.06.2023 14:58 24,0 C 16,2 C 19,1 C 16,2 C 37 % 42 % 37 % 1020,6 hPa 0,0 l/m 6,1 km/h (2 Bft) O-NO 67 1,5 C 16,2 C 9,7 km/h (2 Bft)
03.06.2023 14:56 23,7 C 16,3 C 19,1 C 16,3 C 37 % 42 % 37 % 1020,6 hPa 0,0 l/m 6,9 km/h (2 Bft) O-NO 67 1,6 C 16,3 C 9,7 km/h (2 Bft)
03.06.2023 14:54 23,7 C 16,4 C 19,1 C 16,4 C 37 % 42 % 37 % 1020,6 hPa 0,0 l/m 7,1 km/h (2 Bft) O-NO 67 1,7 C 16,4 C 18,1 km/h (3 Bft)
03.06.2023 14:52 24,0 C 16,6 C 19,1 C 16,6 C 37 % 42 % 37 % 1020,6 hPa 0,0 l/m 7,1 km/h (2 Bft) O 90 1,9 C 16,6 C 18,1 km/h (3 Bft)
03.06.2023 14:50 24,4 C 16,5 C 19,0 C 16,5 C 37 % 42 % 37 % 1020,6 hPa 0,0 l/m 6,8 km/h (2 Bft) N-NW 337 1,8 C 16,5 C 12,6 km/h (3 Bft)
03.06.2023 14:48 24,5 C 16,3 C 19,0 C 16,3 C 37 % 42 % 37 % 1020,6 hPa 0,0 l/m 7,2 km/h (2 Bft) NO 45 1,6 C 16,3 C 12,6 km/h (3 Bft)
03.06.2023 14:46 25,0 C 16,2 C 19,0 C 16,2 C 37 % 42 % 37 % 1020,6 hPa 0,0 l/m 6,9 km/h (2 Bft) O-SO 112 1,5 C 16,2 C 14,0 km/h (3 Bft)
03.06.2023 14:44 25,7 C 16,6 C 19,3 C 16,6 C 37 % 44 % 37 % 1020,6 hPa 0,0 l/m 7,1 km/h (2 Bft) O 90 1,9 C 16,6 C 16,7 km/h (3 Bft)
03.06.2023 14:42 25,7 C 16,5 C 19,2 C 16,5 C 38 % 43 % 38 % 1020,6 hPa 0,0 l/m 6,8 km/h (2 Bft) NO 45 2,1 C 16,5 C 16,7 km/h (3 Bft)
03.06.2023 14:40 25,7 C 16,6 C 19,1 C 16,6 C 38 % 42 % 38 % 1020,6 hPa 0,0 l/m 6,9 km/h (2 Bft) NO 45 2,2 C 16,6 C 16,4 km/h (3 Bft)
03.06.2023 14:38 26,1 C 16,4 C 19,1 C 16,4 C 38 % 42 % 38 % 1020,6 hPa 0,0 l/m 6,8 km/h (2 Bft) O-NO 67 2,1 C 16,4 C 13,3 km/h (3 Bft)
03.06.2023 14:36 26,0 C 16,3 C 19,1 C 16,3 C 38 % 42 % 38 % 1020,6 hPa 0,0 l/m 7,2 km/h (2 Bft) NO 45 2,0 C 16,3 C 15,7 km/h (3 Bft)
03.06.2023 14:34 25,8 C 16,4 C 19,1 C 16,4 C 37 % 42 % 37 % 1020,6 hPa 0,0 l/m 8,4 km/h (2 Bft) NO 45 1,7 C 16,4 C 18,3 km/h (3 Bft)
03.06.2023 14:32 25,5 C 16,4 C 19,1 C 16,4 C 37 % 42 % 37 % 1020,6 hPa 0,0 l/m 8,5 km/h (2 Bft) NO 45 1,7 C 16,4 C 18,3 km/h (3 Bft)
03.06.2023 14:30 25,3 C 16,4 C 19,1 C 16,4 C 37 % 42 % 37 % 1020,6 hPa 0,0 l/m 8,0 km/h (2 Bft) SO 135 1,7 C 16,4 C 11,8 km/h (2 Bft)
03.06.2023 14:28 25,9 C 16,6 C 19,4 C 16,6 C 38 % 42 % 38 % 1020,8 hPa 0,0 l/m 7,7 km/h (2 Bft) O-SO 112 2,2 C 16,6 C 16,2 km/h (3 Bft)
03.06.2023 14:26 26,0 C 16,6 C 19,3 C 16,6 C 37 % 43 % 37 % 1020,8 hPa 0,0 l/m 7,7 km/h (2 Bft) NO 45 1,9 C 16,6 C 18,1 km/h (3 Bft)
03.06.2023 14:24 26,2 C 16,3 C 19,3 C 16,3 C 38 % 43 % 38 % 1020,8 hPa 0,0 l/m 6,6 km/h (2 Bft) N 360 2,0 C 16,3 C 18,1 km/h (3 Bft)
03.06.2023 14:22 26,3 C 16,1 C 19,3 C 16,1 C 38 % 43 % 38 % 1020,8 hPa 0,0 l/m 5,3 km/h (1 Bft) NO 45 1,8 C 16,1 C 16,7 km/h (3 Bft)
03.06.2023 14:20 26,4 C 16,3 C 19,3 C 16,3 C 38 % 43 % 38 % 1020,8 hPa 0,0 l/m 5,0 km/h (1 Bft) N-NW 337 2,0 C 16,3 C 13,5 km/h (3 Bft)
03.06.2023 14:18 26,7 C 16,2 C 19,3 C 16,2 C 38 % 43 % 38 % 1020,8 hPa 0,0 l/m 5,0 km/h (1 Bft) O 90 1,9 C 16,2 C 11,1 km/h (2 Bft)
03.06.2023 14:16 26,8 C 16,2 C 19,3 C 16,2 C 38 % 43 % 38 % 1020,8 hPa 0,0 l/m 4,8 km/h (1 Bft) NO 45 1,9 C 16,2 C 14,5 km/h (3 Bft)
03.06.2023 14:14 26,9 C 16,2 C 19,3 C 16,2 C 38 % 43 % 38 % 1020,8 hPa 0,0 l/m 4,5 km/h (1 Bft) NO 45 1,9 C 16,2 C 14,5 km/h (3 Bft)
03.06.2023 14:12 27,0 C 16,2 C 19,4 C 16,2 C 38 % 43 % 38 % 1020,8 hPa 0,0 l/m 4,5 km/h (1 Bft) O-NO 67 1,9 C 16,2 C 8,9 km/h (2 Bft)
03.06.2023 14:10 27,0 C 15,8 C 19,3 C 15,8 C 37 % 43 % 37 % 1020,8 hPa 0,0 l/m 4,5 km/h (1 Bft) NO 45 1,1 C 15,8 C 8,2 km/h (2 Bft)
03.06.2023 14:08 27,5 C 16,1 C 18,6 C 16,1 C 37 % 43 % 37 % 1021,0 hPa 0,0 l/m 3,7 km/h (1 Bft) O-NO 67 1,4 C 16,1 C 9,2 km/h (2 Bft)
03.06.2023 14:06 27,1 C 16,4 C 18,6 C 16,4 C 38 % 43 % 38 % 1021,0 hPa 0,0 l/m 4,5 km/h (1 Bft) O-NO 67 2,1 C 16,4 C 9,2 km/h (2 Bft)
03.06.2023 14:04 27,4 C 16,2 C 18,6 C 16,2 C 38 % 43 % 38 % 1021,0 hPa 0,0 l/m 4,8 km/h (1 Bft) SO 135 1,9 C 16,2 C 5,1 km/h (1 Bft)
03.06.2023 14:02 27,7 C 16,4 C 18,6 C 16,4 C 38 % 43 % 38 % 1021,0 hPa 0,0 l/m 4,7 km/h (1 Bft) O-NO 67 2,1 C 16,4 C 9,2 km/h (2 Bft)
03.06.2023 14:00 27,4 C 16,6 C 18,6 C 16,6 C 39 % 43 % 39 % 1021,0 hPa 0,0 l/m 5,1 km/h (1 Bft) W-NW 292 2,6 C 16,6 C 7,7 km/h (2 Bft)
03.06.2023 13:58 27,1 C 16,5 C 18,6 C 16,5 C 38 % 43 % 38 % 1021,0 hPa 0,0 l/m 5,5 km/h (1 Bft) NO 45 2,1 C 16,5 C 16,9 km/h (3 Bft)
03.06.2023 13:56 27,1 C 16,5 C 18,5 C 16,5 C 39 % 43 % 39 % 1021,0 hPa 0,0 l/m 6,4 km/h (2 Bft) O-NO 67 2,5 C 16,5 C 16,9 km/h (3 Bft)
03.06.2023 13:54 27,7 C 16,0 C 18,4 C 16,0 C 38 % 43 % 38 % 1021,0 hPa 0,0 l/m 5,8 km/h (2 Bft) N 360 1,7 C 16,0 C 6,0 km/h (2 Bft)
03.06.2023 13:52 28,4 C 16,0 C 18,2 C 16,0 C 38 % 43 % 38 % 1021,0 hPa 0,0 l/m 6,3 km/h (2 Bft) S-SO 157 1,7 C 16,0 C 13,5 km/h (3 Bft)
03.06.2023 13:50 28,5 C 15,9 C 18,2 C 15,9 C 38 % 43 % 38 % 1021,0 hPa 0,0 l/m 6,3 km/h (2 Bft) O-NO 67 1,6 C 15,9 C 14,7 km/h (3 Bft)
03.06.2023 13:48 28,6 C 15,8 C 18,3 C 15,8 C 38 % 43 % 38 % 1021,1 hPa 0,0 l/m 5,8 km/h (2 Bft) N 360 1,5 C 15,8 C 17,1 km/h (3 Bft)
03.06.2023 13:46 28,8 C 15,8 C 18,6 C 15,8 C 37 % 43 % 37 % 1021,1 hPa 0,0 l/m 4,8 km/h (1 Bft) O-NO 67 1,1 C 15,8 C 17,1 km/h (3 Bft)
03.06.2023 13:44 29,5 C 15,9 C 18,9 C 15,9 C 37 % 43 % 37 % 1021,1 hPa 0,0 l/m 4,7 km/h (1 Bft) O-SO 112 1,2 C 15,9 C 10,9 km/h (2 Bft)
03.06.2023 13:42 29,6 C 16,0 C 18,9 C 16,0 C 38 % 44 % 38 % 1021,1 hPa 0,0 l/m 5,1 km/h (1 Bft) NO 45 1,7 C 16,0 C 7,2 km/h (2 Bft)
03.06.2023 13:40 29,7 C 15,6 C 18,9 C 15,6 C 38 % 44 % 38 % 1021,1 hPa 0,0 l/m 5,3 km/h (1 Bft) S 180 1,3 C 15,6 C 7,2 km/h (2 Bft)
03.06.2023 13:38 29,5 C 15,5 C 18,2 C 15,5 C 38 % 44 % 38 % 1021,1 hPa 0,0 l/m 6,1 km/h (2 Bft) O-SO 112 1,3 C 15,5 C 6,3 km/h (2 Bft)
03.06.2023 13:36 28,3 C 15,3 C 18,2 C 15,3 C 38 % 44 % 38 % 1021,1 hPa 0,0 l/m 6,1 km/h (2 Bft) NO 45 1,1 C 15,3 C 20,5 km/h (4 Bft)
03.06.2023 13:34 27,4 C 15,5 C 18,2 C 15,5 C 37 % 44 % 37 % 1021,1 hPa 0,0 l/m 6,0 km/h (2 Bft) NO 45 0,9 C 15,5 C 20,5 km/h (4 Bft)
03.06.2023 13:32 26,6 C 15,8 C 18,3 C 15,8 C 38 % 45 % 38 % 1021,1 hPa 0,0 l/m 4,8 km/h (1 Bft) O-NO 67 1,5 C 15,8 C 8,9 km/h (2 Bft)
03.06.2023 13:30 28,4 C 16,1 C 18,4 C 16,1 C 38 % 43 % 38 % 1021,1 hPa 0,0 l/m 4,5 km/h (1 Bft) SO 135 1,8 C 16,1 C 13,8 km/h (3 Bft)
03.06.2023 13:28 28,4 C 15,9 C 18,3 C 15,9 C 39 % 44 % 39 % 1020,9 hPa 0,0 l/m 4,2 km/h (1 Bft) NO 45 2,0 C 15,9 C 13,8 km/h (3 Bft)
03.06.2023 13:26 28,9 C 15,3 C 18,3 C 15,3 C 37 % 44 % 37 % 1020,9 hPa 0,0 l/m 4,3 km/h (1 Bft) O-SO 112 0,7 C 15,3 C 9,2 km/h (2 Bft)
03.06.2023 13:24 29,0 C 15,3 C 17,7 C 15,3 C 37 % 44 % 37 % 1020,9 hPa 0,0 l/m 5,0 km/h (1 Bft) N-NO 22 0,7 C 15,3 C 9,2 km/h (2 Bft)
03.06.2023 13:22 28,3 C 15,4 C 17,7 C 15,4 C 38 % 44 % 38 % 1020,9 hPa 0,0 l/m 5,5 km/h (1 Bft) SO 135 1,2 C 15,4 C 7,2 km/h (2 Bft)
03.06.2023 13:20 27,8 C 15,4 C 17,6 C 15,4 C 38 % 44 % 38 % 1020,9 hPa 0,0 l/m 6,0 km/h (2 Bft) O-NO 67 1,2 C 15,4 C 9,2 km/h (2 Bft)
03.06.2023 13:18 26,4 C 15,5 C 17,6 C 15,5 C 38 % 44 % 38 % 1020,9 hPa 0,0 l/m 6,6 km/h (2 Bft) O 90 1,3 C 15,5 C 9,2 km/h (2 Bft)
03.06.2023 13:16 25,1 C 15,6 C 17,7 C 15,6 C 38 % 44 % 38 % 1020,9 hPa 0,0 l/m 6,9 km/h (2 Bft) O-SO 112 1,3 C 15,6 C 8,9 km/h (2 Bft)
03.06.2023 13:14 24,8 C 15,6 C 17,8 C 15,6 C 37 % 44 % 37 % 1020,9 hPa 0,0 l/m 7,1 km/h (2 Bft) O-SO 112 1,0 C 15,6 C 15,4 km/h (3 Bft)
03.06.2023 13:12 25,3 C 15,6 C 18,0 C 15,6 C 37 % 44 % 37 % 1020,9 hPa 0,0 l/m 7,1 km/h (2 Bft) O 90 1,0 C 15,6 C 15,4 km/h (3 Bft)
03.06.2023 13:10 25,6 C 15,4 C 17,8 C 15,4 C 38 % 44 % 38 % 1020,9 hPa 0,0 l/m 6,4 km/h (2 Bft) O 90 1,2 C 15,4 C 12,1 km/h (2 Bft)
03.06.2023 13:08 24,9 C 15,4 C 17,9 C 15,4 C 37 % 44 % 37 % 1021,2 hPa 0,0 l/m 6,4 km/h (2 Bft) NO 45 0,8 C 15,4 C 8,7 km/h (2 Bft)
03.06.2023 13:06 25,2 C 15,4 C 17,6 C 15,4 C 38 % 45 % 38 % 1021,2 hPa 0,0 l/m 7,1 km/h (2 Bft) S-SW 202 1,2 C 15,4 C 15,9 km/h (3 Bft)
03.06.2023 13:04 26,1 C 15,2 C 17,6 C 15,2 C 38 % 45 % 38 % 1021,2 hPa 0,0 l/m 6,9 km/h (2 Bft) O 90 1,0 C 15,2 C 11,8 km/h (2 Bft)
03.06.2023 13:02 26,6 C 15,3 C 17,6 C 15,3 C 38 % 45 % 38 % 1021,2 hPa 0,0 l/m 6,9 km/h (2 Bft) O-NO 67 1,1 C 15,3 C 11,8 km/h (2 Bft)
03.06.2023 13:00 25,9 C 15,3 C 17,5 C 15,3 C 38 % 45 % 38 % 1021,2 hPa 0,0 l/m 6,9 km/h (2 Bft) NO 45 1,1 C 15,3 C 17,1 km/h (3 Bft)
03.06.2023 12:58 25,1 C 15,3 C 17,4 C 15,3 C 38 % 45 % 38 % 1021,2 hPa 0,0 l/m 7,2 km/h (2 Bft) NO 45 1,1 C 15,3 C 20,3 km/h (4 Bft)
03.06.2023 12:56 25,1 C 15,3 C 17,2 C 15,3 C 38 % 45 % 38 % 1021,2 hPa 0,0 l/m 7,2 km/h (2 Bft) NO 45 1,1 C 15,3 C 20,3 km/h (4 Bft)
03.06.2023 12:54 25,7 C 15,3 C 17,5 C 15,3 C 38 % 44 % 38 % 1021,2 hPa 0,0 l/m 6,8 km/h (2 Bft) S-SO 157 1,1 C 15,3 C 16,7 km/h (3 Bft)
03.06.2023 12:52 25,7 C 15,2 C 17,5 C 15,2 C 39 % 44 % 39 % 1021,2 hPa 0,0 l/m 6,1 km/h (2 Bft) S-SO 157 1,3 C 15,2 C 16,7 km/h (3 Bft)
03.06.2023 12:50 26,2 C 14,9 C 17,4 C 14,9 C 36 % 45 % 36 % 1021,2 hPa 0,0 l/m 6,0 km/h (2 Bft) SO 135 -0,0 C 14,9 C 17,4 km/h (3 Bft)
03.06.2023 12:48 26,4 C 14,9 C 17,6 C 14,9 C 36 % 44 % 36 % 1021,1 hPa 0,0 l/m 6,3 km/h (2 Bft) O-NO 67 -0,0 C 14,9 C 17,4 km/h (3 Bft)
03.06.2023 12:46 26,9 C 15,7 C 17,8 C 15,7 C 39 % 45 % 39 % 1021,1 hPa 0,0 l/m 5,1 km/h (1 Bft) S-SO 157 1,8 C 15,7 C 13,0 km/h (3 Bft)
03.06.2023 12:44 26,7 C 15,5 C 17,7 C 15,5 C 39 % 45 % 39 % 1021,1 hPa 0,0 l/m 5,8 km/h (2 Bft) O-NO 67 1,6 C 15,5 C 13,0 km/h (3 Bft)
03.06.2023 12:42 27,1 C 15,2 C 17,6 C 15,2 C 39 % 45 % 39 % 1021,1 hPa 0,0 l/m 5,5 km/h (1 Bft) W-NW 292 1,3 C 15,2 C 16,4 km/h (3 Bft)
03.06.2023 12:40 27,2 C 15,0 C 16,7 C 15,0 C 39 % 45 % 39 % 1021,1 hPa 0,0 l/m 5,5 km/h (1 Bft) O-NO 67 1,2 C 15,0 C 16,4 km/h (3 Bft)
03.06.2023 12:38 27,3 C 14,8 C 16,7 C 14,8 C 37 % 45 % 37 % 1021,1 hPa 0,0 l/m 4,5 km/h (1 Bft) O-NO 67 0,3 C 14,8 C 12,8 km/h (3 Bft)
03.06.2023 12:36 27,4 C 14,9 C 16,7 C 14,9 C 37 % 45 % 37 % 1021,1 hPa 0,0 l/m 4,7 km/h (1 Bft) O 90 0,3 C 14,9 C 14,0 km/h (3 Bft)
03.06.2023 12:34 27,8 C 15,4 C 16,7 C 15,4 C 38 % 45 % 38 % 1021,1 hPa 0,0 l/m 4,2 km/h (1 Bft) O-NO 67 1,2 C 15,4 C 14,0 km/h (3 Bft)
03.06.2023 12:32 27,5 C 15,2 C 16,7 C 15,2 C 38 % 45 % 38 % 1021,1 hPa 0,0 l/m 4,3 km/h (1 Bft) N 360 1,0 C 15,2 C 6,8 km/h (2 Bft)
03.06.2023 12:30 27,7 C 15,0 C 16,7 C 15,0 C 39 % 45 % 39 % 1021,1 hPa 0,0 l/m 6,0 km/h (2 Bft) O 90 1,2 C 15,0 C 6,8 km/h (2 Bft)
03.06.2023 12:28 26,5 C 14,7 C 16,7 C 14,7 C 38 % 45 % 38 % 1021,1 hPa 0,0 l/m 6,4 km/h (2 Bft) O-NO 67 0,5 C 14,7 C 7,2 km/h (2 Bft)
03.06.2023 12:26 26,3 C 14,7 C 16,6 C 14,7 C 38 % 45 % 38 % 1021,1 hPa 0,0 l/m 6,6 km/h (2 Bft) O 90 0,5 C 14,7 C 7,2 km/h (2 Bft)
03.06.2023 12:24 25,7 C 14,8 C 16,9 C 14,8 C 38 % 44 % 38 % 1021,1 hPa 0,0 l/m 6,3 km/h (2 Bft) NO 45 0,6 C 14,8 C 15,9 km/h (3 Bft)
03.06.2023 12:22 25,9 C 14,7 C 17,4 C 14,7 C 37 % 45 % 37 % 1021,1 hPa 0,0 l/m 6,8 km/h (2 Bft) NO 45 0,2 C 14,7 C 17,9 km/h (3 Bft)
03.06.2023 12:20 26,4 C 15,0 C 17,4 C 15,0 C 38 % 45 % 38 % 1021,1 hPa 0,0 l/m 6,6 km/h (2 Bft) NO 45 0,8 C 15,0 C 17,9 km/h (3 Bft)
03.06.2023 12:18 26,6 C 14,8 C 17,1 C 14,8 C 38 % 45 % 38 % 1021,1 hPa 0,0 l/m 7,1 km/h (2 Bft) NO 45 0,6 C 14,8 C 8,2 km/h (2 Bft)
03.06.2023 12:16 26,3 C 14,5 C 17,1 C 14,5 C 38 % 45 % 38 % 1021,1 hPa 0,0 l/m 7,6 km/h (2 Bft) NO 45 0,4 C 14,5 C 5,8 km/h (2 Bft)
03.06.2023 12:14 24,9 C 14,4 C 17,1 C 14,4 C 37 % 45 % 37 % 1021,1 hPa 0,0 l/m 8,7 km/h (2 Bft) N 360 -0,1 C 14,4 C 18,3 km/h (3 Bft)
03.06.2023 12:12 23,8 C 14,6 C 16,7 C 14,6 C 38 % 44 % 38 % 1021,1 hPa 0,0 l/m 8,7 km/h (2 Bft) NO 45 0,4 C 14,6 C 18,3 km/h (3 Bft)
03.06.2023 12:10 23,8 C 14,2 C 16,7 C 14,2 C 36 % 44 % 36 % 1021,1 hPa 0,0 l/m 5,6 km/h (1 Bft) NO 45 -0,6 C 14,2 C 13,3 km/h (3 Bft)
03.06.2023 12:08 23,8 C 14,2 C 16,7 C 14,2 C 36 % 44 % 36 % 1021,1 hPa 0,0 l/m 5,6 km/h (1 Bft) NO 45 -0,6 C 14,2 C 13,3 km/h (3 Bft)
03.06.2023 12:06 23,8 C 14,2 C 16,7 C 14,2 C 36 % 44 % 36 % 1021,1 hPa 0,0 l/m 5,6 km/h (1 Bft) NO 45 -0,6 C 14,2 C 13,3 km/h (3 Bft)
03.06.2023 12:04 23,8 C 14,2 C 16,7 C 14,2 C 36 % 44 % 36 % 1021,1 hPa 0,0 l/m 5,6 km/h (1 Bft) NO 45 -0,6 C 14,2 C 13,3 km/h (3 Bft)
03.06.2023 12:01 23,7 C 14,2 C 16,7 C 14,2 C 36 % 44 % 36 % 1021,1 hPa 0,0 l/m 5,6 km/h (1 Bft) NO 45 -0,6 C 14,2 C 13,3 km/h (3 Bft)
03.06.2023 12:00 23,7 C 14,2 C 16,7 C 14,2 C 36 % 44 % 36 % 1021,1 hPa 0,0 l/m 5,6 km/h (1 Bft) NO 45 -0,6 C 14,2 C 20,3 km/h (4 Bft)
03.06.2023 11:58 23,5 C 15,0 C 17,1 C 15,0 C 38 % 45 % 38 % 1021,1 hPa 0,0 l/m 5,0 km/h (1 Bft) NO 45 0,8 C 15,0 C 20,3 km/h (4 Bft)
03.06.2023 11:56 23,3 C 14,7 C 17,1 C 14,7 C 38 % 45 % 38 % 1021,1 hPa 0,0 l/m 4,0 km/h (1 Bft) NO 45 0,5 C 14,7 C 9,7 km/h (2 Bft)
03.06.2023 11:54 22,7 C 14,6 C 17,1 C 14,6 C 38 % 45 % 38 % 1021,1 hPa 0,0 l/m 4,2 km/h (1 Bft) O 90 0,4 C 14,6 C 8,0 km/h (2 Bft)
03.06.2023 11:52 22,1 C 14,6 C 17,1 C 14,6 C 38 % 46 % 38 % 1021,1 hPa 0,0 l/m 4,3 km/h (1 Bft) N-NO 22 0,4 C 14,6 C 8,0 km/h (2 Bft)
03.06.2023 11:50 21,4 C 14,3 C 15,7 C 14,3 C 37 % 46 % 37 % 1021,1 hPa 0,0 l/m 4,8 km/h (1 Bft) NO 45 -0,2 C 14,3 C 9,7 km/h (2 Bft)
03.06.2023 11:48 21,2 C 14,3 C 15,7 C 14,3 C 37 % 46 % 37 % 1020,9 hPa 0,0 l/m 5,1 km/h (1 Bft) S 180 -0,2 C 14,3 C 9,7 km/h (2 Bft)
03.06.2023 11:46 20,9 C 14,4 C 15,7 C 14,4 C 38 % 46 % 38 % 1020,9 hPa 0,0 l/m 5,1 km/h (1 Bft) O 90 0,3 C 14,4 C 10,6 km/h (2 Bft)
03.06.2023 11:44 20,6 C 14,1 C 15,7 C 14,1 C 36 % 46 % 36 % 1020,9 hPa 0,0 l/m 4,8 km/h (1 Bft) NO 45 -0,7 C 14,1 C 10,9 km/h (2 Bft)
03.06.2023 11:42 20,7 C 14,1 C 15,6 C 14,1 C 36 % 46 % 36 % 1020,9 hPa 0,0 l/m 4,8 km/h (1 Bft) O 90 -0,7 C 14,1 C 10,9 km/h (2 Bft)
03.06.2023 11:40 20,2 C 14,5 C 15,6 C 14,5 C 37 % 45 % 37 % 1020,9 hPa 0,0 l/m 5,1 km/h (1 Bft) O 90 -0,0 C 14,5 C 10,1 km/h (2 Bft)
03.06.2023 11:38 20,2 C 14,4 C 15,7 C 14,4 C 38 % 45 % 38 % 1020,9 hPa 0,0 l/m 5,6 km/h (1 Bft) O-NO 67 0,3 C 14,4 C 10,1 km/h (2 Bft)
03.06.2023 11:36 20,0 C 14,4 C 16,5 C 14,4 C 38 % 45 % 38 % 1020,9 hPa 0,0 l/m 5,8 km/h (2 Bft) S 180 0,3 C 14,4 C 7,7 km/h (2 Bft)
03.06.2023 11:34 19,6 C 14,1 C 16,5 C 14,1 C 37 % 45 % 37 % 1020,9 hPa 0,0 l/m 6,0 km/h (2 Bft) O 90 -0,4 C 14,1 C 9,4 km/h (2 Bft)
03.06.2023 11:32 19,5 C 14,0 C 16,5 C 14,0 C 37 % 45 % 37 % 1020,9 hPa 0,0 l/m 6,1 km/h (2 Bft) O-NO 67 -0,4 C 14,0 C 17,4 km/h (3 Bft)
03.06.2023 11:30 19,9 C 14,2 C 16,5 C 14,2 C 37 % 45 % 37 % 1020,9 hPa 0,0 l/m 5,6 km/h (1 Bft) S 180 -0,3 C 14,2 C 17,4 km/h (3 Bft)
03.06.2023 11:28 19,8 C 14,2 C 16,6 C 14,2 C 37 % 46 % 37 % 1021,1 hPa 0,0 l/m 5,5 km/h (1 Bft) NO 45 -0,3 C 14,2 C 10,1 km/h (2 Bft)
03.06.2023 11:26 19,3 C 14,0 C 16,5 C 14,0 C 37 % 47 % 37 % 1021,1 hPa 0,0 l/m 6,0 km/h (2 Bft) N-NW 337 -0,4 C 14,0 C 10,1 km/h (2 Bft)
03.06.2023 11:24 19,7 C 14,2 C 16,1 C 14,2 C 38 % 46 % 38 % 1021,1 hPa 0,0 l/m 6,4 km/h (2 Bft) S-SW 202 0,1 C 14,2 C 10,1 km/h (2 Bft)
03.06.2023 11:22 19,7 C 14,2 C 16,0 C 14,2 C 38 % 46 % 38 % 1021,1 hPa 0,0 l/m 6,6 km/h (2 Bft) S-SO 157 0,1 C 14,2 C 25,6 km/h (4 Bft)
03.06.2023 11:20 19,7 C 13,9 C 16,3 C 13,9 C 38 % 46 % 38 % 1021,1 hPa 0,0 l/m 6,9 km/h (2 Bft) O 90 -0,2 C 13,9 C 25,6 km/h (4 Bft)
03.06.2023 11:18 19,6 C 13,7 C 15,9 C 13,7 C 38 % 46 % 38 % 1021,1 hPa 0,0 l/m 7,2 km/h (2 Bft) O 90 -0,4 C 13,7 C 14,5 km/h (3 Bft)
03.06.2023 11:16 19,6 C 13,7 C 15,7 C 13,7 C 37 % 46 % 37 % 1021,1 hPa 0,0 l/m 6,6 km/h (2 Bft) N 360 -0,7 C 13,7 C 23,7 km/h (4 Bft)
03.06.2023 11:14 19,7 C 13,8 C 15,7 C 13,8 C 38 % 46 % 38 % 1021,1 hPa 0,0 l/m 6,0 km/h (2 Bft) NO 45 -0,3 C 13,8 C 23,7 km/h (4 Bft)
03.06.2023 11:12 19,2 C 13,8 C 15,7 C 13,8 C 39 % 46 % 39 % 1021,1 hPa 0,0 l/m 5,6 km/h (1 Bft) SO 135 0,1 C 13,8 C 13,8 km/h (3 Bft)
03.06.2023 11:10 19,4 C 13,6 C 15,7 C 13,6 C 37 % 46 % 37 % 1021,1 hPa 0,0 l/m 6,4 km/h (2 Bft) O 90 -0,8 C 13,6 C 16,7 km/h (3 Bft)
03.06.2023 11:08 19,2 C 13,6 C 15,8 C 13,6 C 38 % 46 % 38 % 1021,2 hPa 0,0 l/m 6,4 km/h (2 Bft) NO 45 -0,4 C 13,6 C 16,7 km/h (3 Bft)
03.06.2023 11:06 19,3 C 13,4 C 15,3 C 13,4 C 38 % 48 % 38 % 1021,2 hPa 0,0 l/m 6,4 km/h (2 Bft) O 90 -0,6 C 13,4 C 9,9 km/h (2 Bft)
03.06.2023 11:04 19,5 C 13,4 C 15,2 C 13,4 C 38 % 47 % 38 % 1021,2 hPa 0,0 l/m 7,6 km/h (2 Bft) S-SO 157 -0,6 C 13,4 C 9,9 km/h (2 Bft)
03.06.2023 11:02 19,5 C 13,2 C 15,2 C 13,2 C 37 % 47 % 37 % 1021,2 hPa 0,0 l/m 7,7 km/h (2 Bft) O 90 -1,2 C 13,2 C 18,8 km/h (3 Bft)
03.06.2023 11:00 19,9 C 13,3 C 15,3 C 13,3 C 37 % 47 % 37 % 1021,2 hPa 0,0 l/m 7,4 km/h (2 Bft) O-NO 67 -1,1 C 13,3 C 18,8 km/h (3 Bft)
03.06.2023 10:58 19,7 C 13,5 C 15,4 C 13,5 C 39 % 46 % 39 % 1021,2 hPa 0,0 l/m 7,1 km/h (2 Bft) NO 45 -0,2 C 13,5 C 21,2 km/h (4 Bft)
03.06.2023 10:56 19,5 C 13,4 C 15,4 C 13,4 C 37 % 46 % 37 % 1021,2 hPa 0,0 l/m 7,2 km/h (2 Bft) N-NO 22 -1,0 C 13,4 C 21,2 km/h (4 Bft)
03.06.2023 10:54 19,1 C 13,4 C 15,4 C 13,4 C 37 % 46 % 37 % 1021,2 hPa 0,0 l/m 7,1 km/h (2 Bft) NO 45 -1,0 C 13,4 C 17,6 km/h (3 Bft)
03.06.2023 10:52 18,9 C 13,7 C 15,3 C 13,7 C 39 % 49 % 39 % 1021,2 hPa 0,0 l/m 6,6 km/h (2 Bft) NO 45 0,0 C 13,7 C 11,6 km/h (2 Bft)
03.06.2023 10:50 19,0 C 13,3 C 15,3 C 13,3 C 38 % 49 % 38 % 1021,2 hPa 0,0 l/m 6,8 km/h (2 Bft) O 90 -0,7 C 13,3 C 10,9 km/h (2 Bft)
03.06.2023 10:48 18,9 C 13,2 C 14,8 C 13,2 C 38 % 48 % 38 % 1021,2 hPa 0,0 l/m 6,6 km/h (2 Bft) N 360 -0,8 C 13,2 C 12,6 km/h (3 Bft)
03.06.2023 10:46 18,8 C 12,9 C 14,8 C 12,9 C 38 % 48 % 38 % 1021,2 hPa 0,0 l/m 7,4 km/h (2 Bft) O 90 -1,1 C 12,9 C 16,7 km/h (3 Bft)
03.06.2023 10:44 18,6 C 13,0 C 14,8 C 13,0 C 38 % 48 % 38 % 1021,2 hPa 0,0 l/m 7,6 km/h (2 Bft) N-NO 22 -1,0 C 13,0 C 16,7 km/h (3 Bft)
03.06.2023 10:42 18,4 C 13,1 C 14,7 C 13,1 C 38 % 48 % 38 % 1021,2 hPa 0,0 l/m 8,2 km/h (2 Bft) O 90 -0,9 C 13,1 C 11,8 km/h (2 Bft)
03.06.2023 10:40 18,0 C 13,0 C 14,6 C 13,0 C 39 % 48 % 39 % 1021,2 hPa 0,0 l/m 8,2 km/h (2 Bft) O 90 -0,6 C 13,0 C 16,2 km/h (3 Bft)
03.06.2023 10:38 17,9 C 12,6 C 14,6 C 12,6 C 37 % 48 % 37 % 1021,2 hPa 0,0 l/m 9,2 km/h (2 Bft) O 90 -1,7 C 12,6 C 17,6 km/h (3 Bft)
03.06.2023 10:36 17,8 C 12,6 C 14,6 C 12,6 C 37 % 48 % 37 % 1021,2 hPa 0,0 l/m 8,7 km/h (2 Bft) NO 45 -1,7 C 12,6 C 17,6 km/h (3 Bft)
03.06.2023 10:34 17,8 C 12,8 C 14,6 C 12,8 C 37 % 47 % 37 % 1021,2 hPa 0,0 l/m 8,7 km/h (2 Bft) NO 45 -1,5 C 12,8 C 17,1 km/h (3 Bft)
03.06.2023 10:32 17,8 C 12,8 C 14,6 C 12,8 C 38 % 47 % 38 % 1021,2 hPa 0,0 l/m 8,0 km/h (2 Bft) O 90 -1,2 C 12,8 C 15,0 km/h (3 Bft)
03.06.2023 10:30 17,7 C 12,7 C 14,8 C 12,7 C 38 % 48 % 38 % 1021,2 hPa 0,0 l/m 7,1 km/h (2 Bft) N 360 -1,2 C 12,7 C 20,0 km/h (4 Bft)
03.06.2023 10:28 17,5 C 12,5 C 14,8 C 12,5 C 37 % 48 % 37 % 1021,4 hPa 0,0 l/m 6,8 km/h (2 Bft) NO 45 -1,8 C 12,5 C 20,0 km/h (4 Bft)
03.06.2023 10:26 17,5 C 12,6 C 15,0 C 12,6 C 37 % 49 % 37 % 1021,4 hPa 0,0 l/m 6,4 km/h (2 Bft) W-NW 292 -1,7 C 12,6 C 16,7 km/h (3 Bft)
03.06.2023 10:24 17,4 C 12,8 C 15,0 C 12,8 C 38 % 49 % 38 % 1021,4 hPa 0,0 l/m 6,1 km/h (2 Bft) O-NO 67 -1,2 C 12,8 C 26,1 km/h (4 Bft)
03.06.2023 10:22 17,1 C 12,9 C 14,8 C 12,9 C 39 % 48 % 39 % 1021,4 hPa 0,0 l/m 5,6 km/h (1 Bft) NO 45 -0,7 C 12,9 C 26,1 km/h (4 Bft)
03.06.2023 10:20 16,8 C 12,7 C 14,8 C 12,7 C 39 % 48 % 39 % 1021,4 hPa 0,0 l/m 5,8 km/h (2 Bft) W-NW 292 -0,9 C 12,7 C 11,3 km/h (2 Bft)
03.06.2023 10:18 16,3 C 12,8 C 14,8 C 12,8 C 39 % 48 % 39 % 1021,4 hPa 0,0 l/m 6,6 km/h (2 Bft) S-SO 157 -0,8 C 12,8 C 17,6 km/h (3 Bft)
03.06.2023 10:16 16,4 C 12,5 C 14,9 C 12,5 C 38 % 49 % 38 % 1021,4 hPa 0,0 l/m 6,6 km/h (2 Bft) S-SO 157 -1,4 C 12,5 C 17,6 km/h (3 Bft)
03.06.2023 10:14 16,6 C 12,6 C 14,9 C 12,6 C 39 % 49 % 39 % 1021,4 hPa 0,0 l/m 6,0 km/h (2 Bft) SO 135 -1,0 C 12,6 C 15,9 km/h (3 Bft)
03.06.2023 10:12 16,5 C 12,6 C 14,9 C 12,6 C 38 % 49 % 38 % 1021,4 hPa 0,0 l/m 6,8 km/h (2 Bft) S-SO 157 -1,3 C 12,6 C 15,9 km/h (3 Bft)
03.06.2023 10:10 16,7 C 12,6 C 14,9 C 12,6 C 38 % 49 % 38 % 1021,4 hPa 0,0 l/m 6,0 km/h (2 Bft) S 180 -1,3 C 12,6 C 17,9 km/h (3 Bft)
03.06.2023 10:08 16,8 C 12,6 C 14,6 C 12,6 C 39 % 49 % 39 % 1021,2 hPa 0,0 l/m 5,8 km/h (2 Bft) S-SO 157 -1,0 C 12,6 C 17,9 km/h (3 Bft)
03.06.2023 10:06 16,6 C 12,5 C 14,6 C 12,5 C 39 % 49 % 39 % 1021,2 hPa 0,0 l/m 6,3 km/h (2 Bft) NO 45 -1,1 C 12,5 C 14,5 km/h (3 Bft)
03.06.2023 10:04 16,5 C 12,5 C 14,5 C 12,5 C 39 % 49 % 39 % 1021,2 hPa 0,0 l/m 6,3 km/h (2 Bft) S-SW 202 -1,1 C 12,5 C 14,5 km/h (3 Bft)
03.06.2023 10:02 16,4 C 12,5 C 13,7 C 12,5 C 39 % 49 % 39 % 1021,2 hPa 0,0 l/m 6,4 km/h (2 Bft) O-NO 67 -1,1 C 12,5 C 15,9 km/h (3 Bft)
03.06.2023 10:00 16,3 C 12,7 C 13,7 C 12,7 C 40 % 49 % 40 % 1021,2 hPa 0,0 l/m 6,1 km/h (2 Bft) SO 135 -0,5 C 12,7 C 10,4 km/h (2 Bft)
03.06.2023 09:58 16,3 C 12,3 C 13,7 C 12,3 C 39 % 49 % 39 % 1021,2 hPa 0,0 l/m 7,1 km/h (2 Bft) NO 45 -1,2 C 12,3 C 24,6 km/h (4 Bft)
03.06.2023 09:56 16,6 C 12,5 C 13,6 C 12,5 C 40 % 49 % 40 % 1021,2 hPa 0,0 l/m 8,2 km/h (2 Bft) O 90 -0,7 C 12,5 C 24,6 km/h (4 Bft)
03.06.2023 09:54 16,2 C 12,6 C 14,0 C 12,6 C 40 % 50 % 40 % 1021,2 hPa 0,0 l/m 7,6 km/h (2 Bft) O 90 -0,6 C 12,6 C 18,1 km/h (3 Bft)
03.06.2023 09:52 16,2 C 12,5 C 14,0 C 12,5 C 40 % 50 % 40 % 1021,2 hPa 0,0 l/m 7,9 km/h (2 Bft) O 90 -0,7 C 12,5 C 18,1 km/h (3 Bft)
03.06.2023 09:50 15,8 C 12,1 C 14,0 C 12,1 C 39 % 50 % 39 % 1021,2 hPa 0,0 l/m 8,4 km/h (2 Bft) O-NO 67 -1,4 C 12,1 C 20,5 km/h (4 Bft)
03.06.2023 09:48 15,9 C 12,1 C 14,1 C 12,1 C 39 % 51 % 39 % 1021,2 hPa 0,0 l/m 8,5 km/h (2 Bft) O 90 -1,4 C 12,1 C 29,7 km/h (5 Bft)
03.06.2023 09:46 15,7 C 12,5 C 14,1 C 12,5 C 40 % 51 % 40 % 1021,2 hPa 0,0 l/m 8,2 km/h (2 Bft) O-NO 67 -0,7 C 12,5 C 29,7 km/h (5 Bft)
03.06.2023 09:44 15,6 C 12,1 C 13,4 C 12,1 C 40 % 51 % 40 % 1021,2 hPa 0,0 l/m 7,6 km/h (2 Bft) S-SO 157 -1,1 C 12,1 C 18,1 km/h (3 Bft)
03.06.2023 09:42 15,5 C 12,0 C 13,4 C 12,0 C 41 % 51 % 41 % 1021,2 hPa 0,0 l/m 7,7 km/h (2 Bft) N-NO 22 -0,8 C 12,0 C 21,0 km/h (4 Bft)
03.06.2023 09:40 15,6 C 12,0 C 13,4 C 12,0 C 41 % 51 % 41 % 1021,2 hPa 0,0 l/m 6,9 km/h (2 Bft) O-NO 67 -0,8 C 12,0 C 21,0 km/h (4 Bft)
03.06.2023 09:38 15,6 C 12,1 C 13,4 C 12,1 C 40 % 51 % 40 % 1021,2 hPa 0,0 l/m 6,0 km/h (2 Bft) O-NO 67 -1,1 C 12,1 C 18,3 km/h (3 Bft)
03.06.2023 09:36 15,7 C 12,1 C 13,4 C 12,1 C 41 % 51 % 41 % 1021,2 hPa 0,0 l/m 5,1 km/h (1 Bft) O-NO 67 -0,7 C 12,1 C 16,7 km/h (3 Bft)
03.06.2023 09:34 15,5 C 12,2 C 13,4 C 12,2 C 40 % 51 % 40 % 1021,2 hPa 0,0 l/m 5,1 km/h (1 Bft) O-NO 67 -1,0 C 12,2 C 10,6 km/h (2 Bft)
03.06.2023 09:32 15,4 C 12,5 C 13,4 C 12,5 C 42 % 51 % 42 % 1021,2 hPa 0,0 l/m 5,1 km/h (1 Bft) S 180 -0,1 C 12,5 C 8,7 km/h (2 Bft)
03.06.2023 09:30 15,3 C 12,4 C 13,4 C 12,4 C 43 % 53 % 43 % 1021,2 hPa 0,0 l/m 5,8 km/h (2 Bft) N-NW 337 0,2 C 12,4 C 13,5 km/h (3 Bft)
03.06.2023 09:28 14,7 C 11,9 C 13,4 C 11,9 C 43 % 53 % 43 % 1021,4 hPa 0,0 l/m 7,1 km/h (2 Bft) O 90 -0,3 C 11,9 C 26,1 km/h (4 Bft)
03.06.2023 09:26 14,2 C 11,8 C 13,1 C 11,8 C 42 % 52 % 42 % 1021,4 hPa 0,0 l/m 7,7 km/h (2 Bft) O-NO 67 -0,7 C 11,8 C 13,3 km/h (3 Bft)
03.06.2023 09:24 14,2 C 11,7 C 12,9 C 11,7 C 43 % 52 % 43 % 1021,4 hPa 0,0 l/m 7,9 km/h (2 Bft) O 90 -0,5 C 11,7 C 12,3 km/h (3 Bft)
03.06.2023 09:22 14,5 C 11,7 C 13,0 C 11,7 C 43 % 52 % 43 % 1021,4 hPa 0,0 l/m 7,9 km/h (2 Bft) S-SO 157 -0,5 C 11,7 C 16,7 km/h (3 Bft)
03.06.2023 09:20 14,7 C 11,5 C 13,1 C 11,5 C 43 % 53 % 43 % 1021,4 hPa 0,0 l/m 8,4 km/h (2 Bft) O 90 -0,6 C 11,5 C 19,3 km/h (3 Bft)
03.06.2023 09:18 14,7 C 11,6 C 13,1 C 11,6 C 43 % 53 % 43 % 1021,4 hPa 0,0 l/m 7,9 km/h (2 Bft) O-NO 67 -0,5 C 11,6 C 19,3 km/h (3 Bft)
03.06.2023 09:16 14,7 C 11,9 C 13,1 C 11,9 C 44 % 55 % 44 % 1021,4 hPa 0,0 l/m 7,7 km/h (2 Bft) O 90 0,0 C 11,9 C 16,9 km/h (3 Bft)
03.06.2023 09:14 14,5 C 11,8 C 13,1 C 11,8 C 45 % 55 % 45 % 1021,4 hPa 0,0 l/m 7,4 km/h (2 Bft) O 90 0,3 C 11,8 C 15,9 km/h (3 Bft)
03.06.2023 09:12 14,5 C 11,9 C 13,1 C 11,9 C 45 % 55 % 45 % 1021,4 hPa 0,0 l/m 7,4 km/h (2 Bft) NO 45 0,4 C 11,9 C 13,0 km/h (3 Bft)
03.06.2023 09:10 14,5 C 11,9 C 13,1 C 11,9 C 45 % 55 % 45 % 1021,4 hPa 0,0 l/m 6,9 km/h (2 Bft) O 90 0,4 C 11,9 C 13,0 km/h (3 Bft)
03.06.2023 09:08 14,5 C 11,6 C 13,1 C 11,6 C 44 % 55 % 44 % 1021,4 hPa 0,0 l/m 6,6 km/h (2 Bft) N-NO 22 -0,2 C 11,6 C 10,4 km/h (2 Bft)
03.06.2023 09:06 14,5 C 11,6 C 12,9 C 11,6 C 45 % 55 % 45 % 1021,4 hPa 0,0 l/m 6,6 km/h (2 Bft) O-NO 67 0,1 C 11,6 C 12,3 km/h (3 Bft)
03.06.2023 09:04 14,4 C 11,7 C 12,9 C 11,7 C 45 % 55 % 45 % 1021,4 hPa 0,0 l/m 6,1 km/h (2 Bft) O-NO 67 0,2 C 11,7 C 16,7 km/h (3 Bft)
03.06.2023 09:02 14,0 C 11,8 C 12,9 C 11,8 C 45 % 55 % 45 % 1021,4 hPa 0,0 l/m 6,3 km/h (2 Bft) O 90 0,3 C 11,8 C 16,7 km/h (3 Bft)
03.06.2023 09:00 13,9 C 11,5 C 12,8 C 11,5 C 45 % 55 % 45 % 1021,4 hPa 0,0 l/m 6,0 km/h (2 Bft) O 90 -0,0 C 11,5 C 16,4 km/h (3 Bft)
03.06.2023 08:58 13,9 C 11,6 C 12,8 C 11,6 C 45 % 55 % 45 % 1021,4 hPa 0,0 l/m 6,4 km/h (2 Bft) O 90 0,1 C 11,6 C 16,4 km/h (3 Bft)
03.06.2023 08:56 13,8 C 11,7 C 12,8 C 11,7 C 45 % 55 % 45 % 1021,4 hPa 0,0 l/m 6,6 km/h (2 Bft) S-SW 202 0,2 C 11,7 C 18,8 km/h (3 Bft)
03.06.2023 08:54 13,7 C 11,6 C 12,8 C 11,6 C 45 % 55 % 45 % 1021,4 hPa 0,0 l/m 6,8 km/h (2 Bft) NO 45 0,1 C 11,6 C 18,8 km/h (3 Bft)
03.06.2023 08:52 13,4 C 11,4 C 12,8 C 11,4 C 45 % 55 % 45 % 1021,4 hPa 0,0 l/m 6,8 km/h (2 Bft) O-NO 67 -0,1 C 11,4 C 8,0 km/h (2 Bft)
03.06.2023 08:50 13,3 C 11,1 C 12,5 C 11,1 C 44 % 56 % 44 % 1021,4 hPa 0,0 l/m 6,4 km/h (2 Bft) SO 135 -0,7 C 11,1 C 14,2 km/h (3 Bft)
03.06.2023 08:48 13,2 C 11,1 C 12,5 C 11,1 C 44 % 56 % 44 % 1021,4 hPa 0,0 l/m 6,0 km/h (2 Bft) NO 45 -0,7 C 11,1 C 14,2 km/h (3 Bft)
03.06.2023 08:46 13,3 C 11,2 C 12,5 C 11,2 C 44 % 56 % 44 % 1021,4 hPa 0,0 l/m 5,8 km/h (2 Bft) O-NO 67 -0,6 C 11,2 C 9,7 km/h (2 Bft)
03.06.2023 08:44 13,3 C 11,4 C 12,5 C 11,4 C 45 % 56 % 45 % 1021,4 hPa 0,0 l/m 6,3 km/h (2 Bft) O 90 -0,1 C 11,4 C 12,1 km/h (2 Bft)
03.06.2023 08:42 13,3 C 11,4 C 12,5 C 11,4 C 46 % 56 % 46 % 1021,4 hPa 0,0 l/m 7,1 km/h (2 Bft) NO 45 0,2 C 11,4 C 12,1 km/h (2 Bft)
03.06.2023 08:40 13,2 C 11,4 C 12,2 C 11,4 C 46 % 58 % 46 % 1021,4 hPa 0,0 l/m 6,9 km/h (2 Bft) SO 135 0,2 C 11,4 C 9,9 km/h (2 Bft)
03.06.2023 08:38 12,9 C 11,1 C 12,2 C 11,1 C 46 % 58 % 46 % 1021,4 hPa 0,0 l/m 7,2 km/h (2 Bft) N-NO 22 -0,1 C 11,1 C 22,0 km/h (4 Bft)
03.06.2023 08:36 12,8 C 11,0 C 12,2 C 11,0 C 46 % 58 % 46 % 1021,4 hPa 0,0 l/m 7,4 km/h (2 Bft) O-SO 112 -0,2 C 11,0 C 22,0 km/h (4 Bft)
03.06.2023 08:34 12,8 C 10,9 C 12,2 C 10,9 C 46 % 58 % 46 % 1021,4 hPa 0,0 l/m 6,6 km/h (2 Bft) N-NO 22 -0,3 C 10,9 C 16,2 km/h (3 Bft)
03.06.2023 08:32 12,7 C 11,2 C 12,2 C 11,2 C 46 % 58 % 46 % 1021,4 hPa 0,0 l/m 4,8 km/h (1 Bft) O-NO 67 0,0 C 11,2 C 15,9 km/h (3 Bft)
03.06.2023 08:30 12,4 C 11,0 C 12,2 C 11,0 C 46 % 59 % 46 % 1021,4 hPa 0,0 l/m 4,5 km/h (1 Bft) O 90 -0,2 C 11,0 C 11,3 km/h (2 Bft)
03.06.2023 08:28 12,5 C 11,0 C 12,2 C 11,0 C 45 % 59 % 45 % 1021,4 hPa 0,0 l/m 4,0 km/h (1 Bft) S-SO 157 -0,5 C 11,0 C 9,2 km/h (2 Bft)
03.06.2023 08:26 12,4 C 11,2 C 12,2 C 11,2 C 45 % 59 % 45 % 1021,4 hPa 0,0 l/m 3,5 km/h (1 Bft) O 90 -0,3 C 11,2 C 12,6 km/h (3 Bft)
03.06.2023 08:24 12,4 C 11,4 C 12,0 C 11,4 C 47 % 61 % 47 % 1021,4 hPa 0,0 l/m 2,9 km/h (1 Bft) O 90 0,5 C 11,4 C 12,6 km/h (3 Bft)
03.06.2023 08:22 12,4 C 11,5 C 12,0 C 11,5 C 47 % 61 % 47 % 1021,4 hPa 0,0 l/m 3,1 km/h (1 Bft) O 90 0,6 C 11,5 C 8,4 km/h (2 Bft)
03.06.2023 08:20 12,4 C 11,5 C 12,0 C 11,5 C 47 % 61 % 47 % 1021,4 hPa 0,0 l/m 3,7 km/h (1 Bft) O-NO 67 0,6 C 11,5 C 6,0 km/h (2 Bft)
03.06.2023 08:18 12,3 C 11,5 C 11,9 C 11,5 C 48 % 61 % 48 % 1021,4 hPa 0,0 l/m 3,9 km/h (1 Bft) O 90 0,9 C 11,5 C 6,5 km/h (2 Bft)
03.06.2023 08:16 12,1 C 11,2 C 11,9 C 11,2 C 48 % 61 % 48 % 1021,4 hPa 0,0 l/m 4,7 km/h (1 Bft) S-SO 157 0,6 C 11,2 C 6,5 km/h (2 Bft)
03.06.2023 08:14 11,7 C 10,8 C 11,5 C 10,8 C 48 % 61 % 48 % 1021,4 hPa 0,0 l/m 4,8 km/h (1 Bft) S 180 0,2 C 10,8 C 8,7 km/h (2 Bft)
03.06.2023 08:12 11,4 C 10,7 C 11,5 C 10,7 C 48 % 61 % 48 % 1021,4 hPa 0,0 l/m 5,8 km/h (2 Bft) O-SO 112 0,1 C 10,7 C 18,8 km/h (3 Bft)
03.06.2023 08:10 11,4 C 10,7 C 11,5 C 10,7 C 48 % 61 % 48 % 1021,4 hPa 0,0 l/m 6,3 km/h (2 Bft) O 90 0,1 C 10,7 C 18,8 km/h (3 Bft)
03.06.2023 08:08 11,4 C 10,5 C 11,5 C 10,5 C 48 % 61 % 48 % 1021,6 hPa 0,0 l/m 6,3 km/h (2 Bft) NO 45 -0,0 C 10,5 C 7,2 km/h (2 Bft)
03.06.2023 08:06 11,2 C 10,5 C 11,3 C 10,5 C 48 % 61 % 48 % 1021,6 hPa 0,0 l/m 5,8 km/h (2 Bft) S 180 -0,0 C 10,5 C 22,0 km/h (4 Bft)
03.06.2023 08:04 11,2 C 10,4 C 11,3 C 10,4 C 48 % 61 % 48 % 1021,6 hPa 0,0 l/m 5,8 km/h (2 Bft) S-SO 157 -0,1 C 10,4 C 22,0 km/h (4 Bft)
03.06.2023 08:02 11,2 C 10,5 C 11,3 C 10,5 C 48 % 61 % 48 % 1021,6 hPa 0,0 l/m 5,6 km/h (1 Bft) O-NO 67 -0,0 C 10,5 C 11,6 km/h (2 Bft)
03.06.2023 08:00 11,2 C 10,5 C 11,3 C 10,5 C 48 % 62 % 48 % 1021,6 hPa 0,0 l/m 5,5 km/h (1 Bft) O 90 -0,0 C 10,5 C 14,0 km/h (3 Bft)
03.06.2023 07:58 11,3 C 10,7 C 11,5 C 10,7 C 49 % 62 % 49 % 1021,6 hPa 0,0 l/m 4,7 km/h (1 Bft) S 180 0,4 C 10,7 C 14,0 km/h (3 Bft)
03.06.2023 07:56 11,4 C 10,6 C 11,5 C 10,6 C 49 % 62 % 49 % 1021,6 hPa 0,0 l/m 4,8 km/h (1 Bft) S-SW 202 0,3 C 10,6 C 8,2 km/h (2 Bft)
03.06.2023 07:54 11,2 C 10,5 C 11,3 C 10,5 C 49 % 62 % 49 % 1021,6 hPa 0,0 l/m 5,6 km/h (1 Bft) O 90 0,2 C 10,5 C 9,7 km/h (2 Bft)
03.06.2023 07:52 11,1 C 10,4 C 11,2 C 10,4 C 49 % 62 % 49 % 1021,6 hPa 0,0 l/m 5,6 km/h (1 Bft) NO 45 0,2 C 10,4 C 9,7 km/h (2 Bft)
03.06.2023 07:50 10,9 C 10,2 C 11,0 C 10,2 C 49 % 62 % 49 % 1021,6 hPa 0,0 l/m 6,0 km/h (2 Bft) S 180 -0,0 C 10,2 C 9,7 km/h (2 Bft)
03.06.2023 07:48 10,8 C 10,2 C 10,8 C 10,2 C 49 % 62 % 49 % 1021,8 hPa 0,0 l/m 5,8 km/h (2 Bft) O 90 -0,0 C 10,2 C 25,6 km/h (4 Bft)
03.06.2023 07:46 10,8 C 10,2 C 10,8 C 10,2 C 49 % 62 % 49 % 1021,8 hPa 0,0 l/m 6,0 km/h (2 Bft) O 90 -0,0 C 10,2 C 25,6 km/h (4 Bft)
03.06.2023 07:44 10,7 C 10,3 C 11,0 C 10,3 C 49 % 62 % 49 % 1021,8 hPa 0,0 l/m 5,8 km/h (2 Bft) O 90 0,1 C 10,3 C 25,6 km/h (4 Bft)
03.06.2023 07:42 10,8 C 10,3 C 11,1 C 10,3 C 49 % 63 % 49 % 1021,8 hPa 0,0 l/m 5,0 km/h (1 Bft) S 180 0,1 C 10,3 C 10,9 km/h (2 Bft)
03.06.2023 07:40 10,9 C 10,3 C 11,1 C 10,3 C 50 % 63 % 50 % 1021,8 hPa 0,0 l/m 5,0 km/h (1 Bft) O-SO 112 0,3 C 10,3 C 8,2 km/h (2 Bft)
03.06.2023 07:38 10,9 C 10,3 C 11,1 C 10,3 C 51 % 63 % 51 % 1021,8 hPa 0,0 l/m 4,5 km/h (1 Bft) O 90 0,6 C 10,3 C 12,3 km/h (3 Bft)
03.06.2023 07:36 10,9 C 10,4 C 11,2 C 10,4 C 51 % 64 % 51 % 1021,8 hPa 0,0 l/m 4,7 km/h (1 Bft) NO 45 0,7 C 10,4 C 12,3 km/h (3 Bft)
03.06.2023 07:34 10,9 C 10,4 C 11,2 C 10,4 C 52 % 65 % 52 % 1021,8 hPa 0,0 l/m 4,2 km/h (1 Bft) O-NO 67 1,0 C 10,4 C 11,8 km/h (2 Bft)
03.06.2023 07:32 10,8 C 10,3 C 11,2 C 10,3 C 52 % 65 % 52 % 1021,8 hPa 0,0 l/m 3,9 km/h (1 Bft) O 90 0,9 C 10,3 C 14,2 km/h (3 Bft)
03.06.2023 07:30 10,8 C 10,4 C 11,1 C 10,4 C 52 % 65 % 52 % 1021,8 hPa 0,0 l/m 3,2 km/h (1 Bft) S 180 1,0 C 10,4 C 14,2 km/h (3 Bft)
03.06.2023 07:28 10,8 C 10,4 C 10,9 C 10,4 C 52 % 65 % 52 % 1021,7 hPa 0,0 l/m 2,6 km/h (1 Bft) O-NO 67 1,0 C 10,4 C 8,7 km/h (2 Bft)
03.06.2023 07:26 10,8 C 10,4 C 10,1 C 10,1 C 52 % 66 % 52 % 1021,7 hPa 0,0 l/m 2,3 km/h (1 Bft) O-NO 67 1,0 C 10,1 C 8,7 km/h (2 Bft)
03.06.2023 07:24 10,8 C 10,5 C 10,1 C 10,1 C 53 % 66 % 53 % 1021,7 hPa 0,0 l/m 2,1 km/h (1 Bft) N 360 1,3 C 10,1 C 4,6 km/h (1 Bft)
03.06.2023 07:22 10,7 C 10,7 C 10,1 C 10,1 C 54 % 66 % 54 % 1021,7 hPa 0,0 l/m 2,3 km/h (1 Bft) O 90 1,8 C 10,1 C 0,0 km/h (0 Bft)
03.06.2023 07:20 10,4 C 10,4 C 10,1 C 10,1 C 54 % 66 % 54 % 1021,7 hPa 0,0 l/m 2,1 km/h (1 Bft) SO 135 1,5 C 10,1 C 6,8 km/h (2 Bft)
03.06.2023 07:18 10,0 C 10,2 C 10,1 C 10,1 C 54 % 66 % 54 % 1021,7 hPa 0,0 l/m 1,9 km/h (1 Bft) O 90 1,3 C 10,1 C 6,8 km/h (2 Bft)
03.06.2023 07:16 9,8 C 10,0 C 10,1 C 10,0 C 55 % 66 % 55 % 1021,7 hPa 0,0 l/m 1,9 km/h (1 Bft) N-NO 22 1,4 C 10,0 C 15,0 km/h (3 Bft)
03.06.2023 07:14 9,4 C 9,8 C 10,1 C 9,8 C 56 % 66 % 56 % 1021,7 hPa 0,0 l/m 2,4 km/h (1 Bft) S-SO 157 1,4 C 9,8 C 15,0 km/h (3 Bft)
03.06.2023 07:12 9,3 C 9,8 C 10,1 C 9,8 C 56 % 66 % 56 % 1021,7 hPa 0,0 l/m 1,6 km/h (1 Bft) SO 135 1,4 C 9,8 C 5,3 km/h (1 Bft)
03.06.2023 07:10 9,4 C 9,7 C 10,1 C 9,7 C 57 % 66 % 57 % 1021,7 hPa 0,0 l/m 2,1 km/h (1 Bft) W-SW 247 1,6 C 9,7 C 0,0 km/h (0 Bft)
03.06.2023 07:08 9,6 C 9,7 C 9,9 C 9,7 C 57 % 67 % 57 % 1021,9 hPa 0,0 l/m 3,4 km/h (1 Bft) S-SO 157 1,6 C 9,7 C 7,0 km/h (2 Bft)
03.06.2023 07:06 9,6 C 9,6 C 9,9 C 9,6 C 57 % 67 % 57 % 1021,9 hPa 0,0 l/m 4,0 km/h (1 Bft) NO 45 1,5 C 9,6 C 7,5 km/h (2 Bft)
03.06.2023 07:04 9,7 C 9,6 C 9,8 C 9,6 C 57 % 67 % 57 % 1021,9 hPa 0,0 l/m 4,2 km/h (1 Bft) O 90 1,5 C 9,6 C 7,5 km/h (2 Bft)
03.06.2023 07:02 9,7 C 9,6 C 9,8 C 9,6 C 57 % 67 % 57 % 1021,9 hPa 0,0 l/m 3,9 km/h (1 Bft) NO 45 1,5 C 9,6 C 10,9 km/h (2 Bft)
03.06.2023 07:00 9,7 C 9,6 C 9,8 C 9,6 C 57 % 67 % 57 % 1021,9 hPa 0,0 l/m 3,9 km/h (1 Bft) O-NO 67 1,5 C 9,6 C 17,1 km/h (3 Bft)
03.06.2023 06:58 9,9 C 9,7 C 9,9 C 9,7 C 57 % 68 % 57 % 1021,9 hPa 0,0 l/m 2,6 km/h (1 Bft) O 90 1,6 C 9,7 C 17,1 km/h (3 Bft)
03.06.2023 06:56 9,9 C 9,6 C 9,9 C 9,6 C 58 % 68 % 58 % 1021,9 hPa 0,0 l/m 2,1 km/h (1 Bft) NO 45 1,8 C 9,6 C 9,7 km/h (2 Bft)
03.06.2023 06:54 10,0 C 9,6 C 9,9 C 9,6 C 58 % 68 % 58 % 1021,9 hPa 0,0 l/m 1,6 km/h (1 Bft) O 90 1,8 C 9,6 C 9,7 km/h (2 Bft)
03.06.2023 06:52 10,0 C 9,6 C 9,9 C 9,6 C 58 % 68 % 58 % 1021,9 hPa 0,0 l/m 1,6 km/h (1 Bft) SO 135 1,8 C 9,6 C 4,1 km/h (1 Bft)
03.06.2023 06:50 10,0 C 9,6 C 9,9 C 9,6 C 58 % 69 % 58 % 1021,9 hPa 0,0 l/m 1,8 km/h (1 Bft) NO 45 1,8 C 9,6 C 4,6 km/h (1 Bft)
03.06.2023 06:48 10,0 C 9,5 C 9,9 C 9,5 C 58 % 69 % 58 % 1021,7 hPa 0,0 l/m 1,8 km/h (1 Bft) O-SO 112 1,7 C 9,5 C 8,9 km/h (2 Bft)
03.06.2023 06:46 9,9 C 9,5 C 9,9 C 9,5 C 58 % 69 % 58 % 1021,7 hPa 0,0 l/m 1,8 km/h (1 Bft) S 180 1,7 C 9,5 C 8,9 km/h (2 Bft)
03.06.2023 06:44 9,8 C 9,5 C 9,9 C 9,5 C 58 % 69 % 58 % 1021,7 hPa 0,0 l/m 2,3 km/h (1 Bft) SO 135 1,7 C 9,5 C 8,0 km/h (2 Bft)
03.06.2023 06:42 9,8 C 9,5 C 10,0 C 9,5 C 58 % 69 % 58 % 1021,7 hPa 0,0 l/m 3,1 km/h (1 Bft) SO 135 1,7 C 9,5 C 8,0 km/h (2 Bft)
03.06.2023 06:40 9,8 C 9,5 C 10,0 C 9,5 C 58 % 69 % 58 % 1021,7 hPa 0,0 l/m 2,7 km/h (1 Bft) O-SO 112 1,7 C 9,5 C 2,7 km/h (1 Bft)
03.06.2023 06:38 9,8 C 9,5 C 10,0 C 9,5 C 58 % 69 % 58 % 1021,7 hPa 0,0 l/m 3,1 km/h (1 Bft) O-NO 67 1,7 C 9,5 C 9,7 km/h (2 Bft)
03.06.2023 06:36 9,7 C 9,5 C 10,0 C 9,5 C 58 % 69 % 58 % 1021,7 hPa 0,0 l/m 3,4 km/h (1 Bft) S-SO 157 1,7 C 9,5 C 9,7 km/h (2 Bft)
03.06.2023 06:34 9,9 C 9,5 C 10,1 C 9,5 C 58 % 69 % 58 % 1021,7 hPa 0,0 l/m 3,2 km/h (1 Bft) O 90 1,7 C 9,5 C 14,0 km/h (3 Bft)
03.06.2023 06:32 9,9 C 9,7 C 9,4 C 9,4 C 58 % 71 % 58 % 1021,7 hPa 0,0 l/m 3,2 km/h (1 Bft) S-SO 157 1,8 C 9,4 C 14,0 km/h (3 Bft)
03.06.2023 06:30 10,0 C 9,8 C 9,4 C 9,4 C 58 % 71 % 58 % 1021,7 hPa 0,0 l/m 3,2 km/h (1 Bft) N-NW 337 1,9 C 9,4 C 8,9 km/h (2 Bft)
03.06.2023 06:28 10,0 C 9,7 C 9,4 C 9,4 C 58 % 71 % 58 % 1021,5 hPa 0,0 l/m 3,2 km/h (1 Bft) O-NO 67 1,8 C 9,4 C 8,9 km/h (2 Bft)
03.06.2023 06:26 10,0 C 9,7 C 9,4 C 9,4 C 58 % 71 % 58 % 1021,5 hPa 0,0 l/m 3,1 km/h (1 Bft) O-NO 67 1,8 C 9,4 C 8,0 km/h (2 Bft)
03.06.2023 06:24 10,0 C 9,7 C 9,4 C 9,4 C 58 % 71 % 58 % 1021,5 hPa 0,0 l/m 3,1 km/h (1 Bft) NO 45 1,8 C 9,4 C 8,0 km/h (2 Bft)
03.06.2023 06:22 10,0 C 9,6 C 9,4 C 9,4 C 58 % 71 % 58 % 1021,5 hPa 0,0 l/m 2,1 km/h (1 Bft) O-NO 67 1,8 C 9,4 C 5,8 km/h (2 Bft)
03.06.2023 06:20 9,9 C 9,7 C 9,4 C 9,4 C 58 % 71 % 58 % 1021,5 hPa 0,0 l/m 2,1 km/h (1 Bft) NO 45 1,8 C 9,4 C 5,8 km/h (2 Bft)
03.06.2023 06:18 9,7 C 9,6 C 9,4 C 9,4 C 59 % 71 % 59 % 1021,5 hPa 0,0 l/m 2,1 km/h (1 Bft) W-NW 292 2,0 C 9,4 C 4,6 km/h (1 Bft)
03.06.2023 06:16 9,6 C 9,5 C 9,4 C 9,4 C 59 % 71 % 59 % 1021,5 hPa 0,0 l/m 2,1 km/h (1 Bft) NO 45 1,9 C 9,4 C 4,6 km/h (1 Bft)
03.06.2023 06:14 9,4 C 9,4 C 9,4 C 9,4 C 59 % 71 % 59 % 1021,5 hPa 0,0 l/m 1,9 km/h (1 Bft) N 360 1,8 C 9,4 C 3,1 km/h (1 Bft)
03.06.2023 06:12 9,0 C 9,3 C 9,4 C 9,3 C 59 % 71 % 59 % 1021,5 hPa 0,0 l/m 2,1 km/h (1 Bft) O-NO 67 1,7 C 9,3 C 0,0 km/h (0 Bft)
03.06.2023 06:10 8,6 C 9,2 C 9,1 C 9,1 C 59 % 71 % 59 % 1021,5 hPa 0,0 l/m 0,8 km/h (0 Bft) NO 45 1,6 C 9,1 C 0,0 km/h (0 Bft)
03.06.2023 06:08 8,6 C 9,2 C 9,1 C 9,1 C 59 % 71 % 59 % 1021,5 hPa 0,0 l/m 0,8 km/h (0 Bft) NO 45 1,6 C 9,1 C 0,0 km/h (0 Bft)
03.06.2023 06:06 8,6 C 9,2 C 9,1 C 9,1 C 59 % 71 % 59 % 1021,5 hPa 0,0 l/m 0,8 km/h (0 Bft) NO 45 1,6 C 9,1 C 0,0 km/h (0 Bft)
03.06.2023 06:04 8,6 C 9,2 C 9,1 C 9,1 C 59 % 71 % 59 % 1021,5 hPa 0,0 l/m 0,8 km/h (0 Bft) NO 45 1,6 C 9,1 C 0,0 km/h (0 Bft)
03.06.2023 06:02 8,6 C 9,2 C 9,1 C 9,1 C 59 % 71 % 59 % 1021,5 hPa 0,0 l/m 0,8 km/h (0 Bft) NO 45 1,6 C 9,1 C 0,0 km/h (0 Bft)
03.06.2023 06:00 8,3 C 9,2 C 9,1 C 9,1 C 59 % 71 % 59 % 1021,5 hPa 0,0 l/m 1,0 km/h (0 Bft) S-SO 157 1,6 C 9,1 C 0,0 km/h (0 Bft)
03.06.2023 05:58 8,1 C 9,2 C 9,1 C 9,1 C 59 % 71 % 59 % 1021,5 hPa 0,0 l/m 1,4 km/h (1 Bft) O-SO 112 1,6 C 9,1 C 2,4 km/h (1 Bft)
03.06.2023 05:56 8,0 C 9,2 C 9,1 C 9,1 C 59 % 71 % 59 % 1021,5 hPa 0,0 l/m 1,9 km/h (1 Bft) O-NO 67 1,6 C 9,1 C 3,6 km/h (1 Bft)
03.06.2023 05:54 7,9 C 9,2 C 9,1 C 9,1 C 60 % 71 % 60 % 1021,5 hPa 0,0 l/m 1,9 km/h (1 Bft) O 90 1,8 C 9,1 C 9,2 km/h (2 Bft)
03.06.2023 05:52 7,9 C 9,1 C 9,1 C 9,1 C 60 % 71 % 60 % 1021,5 hPa 0,0 l/m 1,8 km/h (1 Bft) NO 45 1,8 C 9,1 C 9,2 km/h (2 Bft)
03.06.2023 05:50 7,7 C 9,0 C 9,1 C 9,0 C 60 % 71 % 60 % 1021,5 hPa 0,0 l/m 1,9 km/h (1 Bft) SO 135 1,7 C 9,0 C 7,5 km/h (2 Bft)
03.06.2023 05:48 7,5 C 9,0 C 9,0 C 9,0 C 60 % 71 % 60 % 1021,5 hPa 0,0 l/m 1,8 km/h (1 Bft) O 90 1,7 C 9,0 C 7,5 km/h (2 Bft)
03.06.2023 05:46 7,5 C 8,9 C 9,0 C 8,9 C 60 % 71 % 60 % 1021,5 hPa 0,0 l/m 1,0 km/h (0 Bft) N-NW 337 1,6 C 8,9 C 4,8 km/h (1 Bft)
03.06.2023 05:44 7,4 C 8,9 C 9,1 C 8,9 C 60 % 71 % 60 % 1021,5 hPa 0,0 l/m 0,8 km/h (0 Bft) S 180 1,6 C 8,9 C 2,4 km/h (1 Bft)
03.06.2023 05:42 7,3 C 8,9 C 9,1 C 8,9 C 60 % 71 % 60 % 1021,5 hPa 0,0 l/m 1,0 km/h (0 Bft) SO 135 1,6 C 8,9 C 6,8 km/h (2 Bft)
03.06.2023 05:40 7,3 C 8,9 C 9,1 C 8,9 C 60 % 71 % 60 % 1021,5 hPa 0,0 l/m 1,1 km/h (1 Bft) O-NO 67 1,6 C 8,9 C 6,8 km/h (2 Bft)
03.06.2023 05:38 7,3 C 8,8 C 9,1 C 8,8 C 59 % 70 % 59 % 1021,5 hPa 0,0 l/m 1,3 km/h (1 Bft) O-NO 67 1,2 C 8,8 C 0,0 km/h (0 Bft)
03.06.2023 05:36 7,4 C 8,8 C 9,1 C 8,8 C 59 % 70 % 59 % 1021,5 hPa 0,0 l/m 1,9 km/h (1 Bft) O-SO 112 1,2 C 8,8 C 0,0 km/h (0 Bft)
03.06.2023 05:34 7,3 C 8,9 C 9,2 C 8,9 C 59 % 70 % 59 % 1021,5 hPa 0,0 l/m 1,9 km/h (1 Bft) W 270 1,3 C 8,9 C 4,1 km/h (1 Bft)
03.06.2023 05:32 7,4 C 9,1 C 9,3 C 9,1 C 59 % 70 % 59 % 1021,5 hPa 0,0 l/m 1,8 km/h (1 Bft) N 360 1,5 C 9,1 C 4,1 km/h (1 Bft)
03.06.2023 05:30 7,5 C 9,1 C 9,3 C 9,1 C 59 % 70 % 59 % 1021,5 hPa 0,0 l/m 1,4 km/h (1 Bft) N 360 1,5 C 9,1 C 4,1 km/h (1 Bft)
03.06.2023 05:28 7,6 C 9,2 C 9,3 C 9,2 C 59 % 70 % 59 % 1021,3 hPa 0,0 l/m 1,0 km/h (0 Bft) NO 45 1,6 C 9,2 C 7,7 km/h (2 Bft)
03.06.2023 05:26 7,7 C 9,2 C 9,4 C 9,2 C 59 % 70 % 59 % 1021,3 hPa 0,0 l/m 0,6 km/h (0 Bft) NO 45 1,6 C 9,2 C 7,7 km/h (2 Bft)
03.06.2023 05:24 7,9 C 9,2 C 9,4 C 9,2 C 59 % 70 % 59 % 1021,3 hPa 0,0 l/m 0,5 km/h (0 Bft) SO 135 1,6 C 9,2 C 0,0 km/h (0 Bft)
03.06.2023 05:22 8,1 C 9,3 C 9,5 C 9,3 C 59 % 70 % 59 % 1021,3 hPa 0,0 l/m 1,3 km/h (1 Bft) O 90 1,7 C 9,3 C 0,0 km/h (0 Bft)
03.06.2023 05:20 8,2 C 9,4 C 9,6 C 9,4 C 59 % 70 % 59 % 1021,3 hPa 0,0 l/m 1,6 km/h (1 Bft) N 360 1,8 C 9,4 C 0,0 km/h (0 Bft)
03.06.2023 05:18 8,3 C 9,5 C 9,6 C 9,5 C 59 % 70 % 59 % 1021,3 hPa 0,0 l/m 2,3 km/h (1 Bft) O-SO 112 1,9 C 9,5 C 2,9 km/h (1 Bft)
03.06.2023 05:16 8,4 C 9,5 C 9,6 C 9,5 C 59 % 69 % 59 % 1021,3 hPa 0,0 l/m 2,6 km/h (1 Bft) O-NO 67 1,9 C 9,5 C 7,2 km/h (2 Bft)
03.06.2023 05:14 8,4 C 9,6 C 9,6 C 9,6 C 59 % 69 % 59 % 1021,3 hPa 0,0 l/m 3,2 km/h (1 Bft) NO 45 2,0 C 9,6 C 9,9 km/h (2 Bft)
03.06.2023 05:12 8,7 C 9,6 C 9,7 C 9,6 C 59 % 69 % 59 % 1021,3 hPa 0,0 l/m 2,9 km/h (1 Bft) W 270 2,0 C 9,6 C 9,9 km/h (2 Bft)
03.06.2023 05:10 8,7 C 9,6 C 9,7 C 9,6 C 59 % 69 % 59 % 1021,3 hPa 0,0 l/m 3,1 km/h (1 Bft) NO 45 2,0 C 9,6 C 4,6 km/h (1 Bft)
03.06.2023 05:08 8,9 C 9,6 C 9,8 C 9,6 C 59 % 69 % 59 % 1021,2 hPa 0,0 l/m 3,4 km/h (1 Bft) O-NO 67 2,0 C 9,6 C 5,1 km/h (1 Bft)
03.06.2023 05:06 8,8 C 9,7 C 9,8 C 9,7 C 59 % 69 % 59 % 1021,2 hPa 0,0 l/m 3,4 km/h (1 Bft) O-SO 112 2,1 C 9,7 C 6,3 km/h (2 Bft)
03.06.2023 05:04 8,8 C 9,7 C 9,8 C 9,7 C 59 % 69 % 59 % 1021,2 hPa 0,0 l/m 3,7 km/h (1 Bft) O-NO 67 2,1 C 9,7 C 6,3 km/h (2 Bft)
03.06.2023 05:02 8,9 C 9,8 C 9,9 C 9,8 C 59 % 69 % 59 % 1021,2 hPa 0,0 l/m 3,9 km/h (1 Bft) O 90 2,2 C 9,8 C 5,8 km/h (2 Bft)
03.06.2023 05:00 8,8 C 9,8 C 9,9 C 9,8 C 59 % 69 % 59 % 1021,2 hPa 0,0 l/m 3,9 km/h (1 Bft) SO 135 2,2 C 9,8 C 8,0 km/h (2 Bft)
03.06.2023 04:58 8,8 C 9,7 C 9,9 C 9,7 C 59 % 69 % 59 % 1021,2 hPa 0,0 l/m 3,5 km/h (1 Bft) NO 45 2,1 C 9,7 C 8,0 km/h (2 Bft)
03.06.2023 04:56 8,9 C 9,8 C 9,9 C 9,8 C 59 % 69 % 59 % 1021,2 hPa 0,0 l/m 3,5 km/h (1 Bft) O-SO 112 2,2 C 9,8 C 10,1 km/h (2 Bft)
03.06.2023 04:54 9,0 C 9,9 C 10,0 C 9,9 C 59 % 69 % 59 % 1021,2 hPa 0,0 l/m 3,9 km/h (1 Bft) O 90 2,3 C 9,9 C 10,1 km/h (2 Bft)
03.06.2023 04:52 9,1 C 9,9 C 10,0 C 9,9 C 58 % 69 % 58 % 1021,2 hPa 0,0 l/m 3,4 km/h (1 Bft) O 90 2,0 C 9,9 C 6,0 km/h (2 Bft)
03.06.2023 04:50 9,2 C 10,0 C 10,0 C 10,0 C 59 % 69 % 59 % 1021,2 hPa 0,0 l/m 3,1 km/h (1 Bft) NO 45 2,4 C 10,0 C 3,6 km/h (1 Bft)
03.06.2023 04:48 9,2 C 10,1 C 10,0 C 10,0 C 58 % 69 % 58 % 1021,3 hPa 0,0 l/m 3,1 km/h (1 Bft) O-NO 67 2,2 C 10,0 C 11,3 km/h (2 Bft)
03.06.2023 04:46 9,2 C 10,0 C 10,0 C 10,0 C 59 % 69 % 59 % 1021,3 hPa 0,0 l/m 3,1 km/h (1 Bft) O 90 2,4 C 10,0 C 11,3 km/h (2 Bft)
03.06.2023 04:44 9,3 C 10,1 C 10,1 C 10,1 C 58 % 69 % 58 % 1021,3 hPa 0,0 l/m 2,9 km/h (1 Bft) O-NO 67 2,2 C 10,1 C 9,7 km/h (2 Bft)
03.06.2023 04:42 9,3 C 10,1 C 10,1 C 10,1 C 58 % 69 % 58 % 1021,3 hPa 0,0 l/m 2,4 km/h (1 Bft) SO 135 2,2 C 10,1 C 2,4 km/h (1 Bft)
03.06.2023 04:40 9,2 C 10,1 C 10,1 C 10,1 C 58 % 69 % 58 % 1021,3 hPa 0,0 l/m 2,7 km/h (1 Bft) S-SO 157 2,2 C 10,1 C 5,1 km/h (1 Bft)
03.06.2023 04:38 9,2 C 10,1 C 10,1 C 10,1 C 59 % 69 % 59 % 1021,3 hPa 0,0 l/m 2,7 km/h (1 Bft) O 90 2,5 C 10,1 C 5,1 km/h (1 Bft)
03.06.2023 04:36 9,4 C 10,1 C 10,1 C 10,1 C 59 % 69 % 59 % 1021,3 hPa 0,0 l/m 2,3 km/h (1 Bft) O-SO 112 2,5 C 10,1 C 5,6 km/h (1 Bft)
03.06.2023 04:34 9,5 C 10,1 C 10,2 C 10,1 C 59 % 69 % 59 % 1021,3 hPa 0,0 l/m 1,8 km/h (1 Bft) O-NO 67 2,5 C 10,1 C 5,6 km/h (1 Bft)
03.06.2023 04:32 9,6 C 10,2 C 10,2 C 10,2 C 59 % 69 % 59 % 1021,3 hPa 0,0 l/m 1,4 km/h (1 Bft) SO 135 2,6 C 10,2 C 5,3 km/h (1 Bft)
03.06.2023 04:30 9,6 C 10,2 C 10,2 C 10,2 C 59 % 69 % 59 % 1021,3 hPa 0,0 l/m 1,0 km/h (0 Bft) SO 135 2,6 C 10,2 C 3,4 km/h (1 Bft)
03.06.2023 04:28 9,6 C 10,2 C 10,3 C 10,2 C 59 % 69 % 59 % 1021,2 hPa 0,0 l/m 1,3 km/h (1 Bft) O-NO 67 2,6 C 10,2 C 3,4 km/h (1 Bft)
03.06.2023 04:26 9,7 C 10,2 C 10,3 C 10,2 C 59 % 70 % 59 % 1021,2 hPa 0,0 l/m 1,9 km/h (1 Bft) O 90 2,6 C 10,2 C 0,0 km/h (0 Bft)
03.06.2023 04:24 9,7 C 10,2 C 10,3 C 10,2 C 59 % 70 % 59 % 1021,2 hPa 0,0 l/m 2,9 km/h (1 Bft) O 90 2,6 C 10,2 C 3,6 km/h (1 Bft)
03.06.2023 04:22 9,7 C 10,3 C 10,4 C 10,3 C 59 % 70 % 59 % 1021,2 hPa 0,0 l/m 3,4 km/h (1 Bft) S 180 2,6 C 10,3 C 3,6 km/h (1 Bft)
03.06.2023 04:20 9,7 C 10,4 C 10,4 C 10,4 C 59 % 70 % 59 % 1021,2 hPa 0,0 l/m 4,8 km/h (1 Bft) O-NO 67 2,7 C 10,4 C 5,6 km/h (1 Bft)
03.06.2023 04:18 9,6 C 10,4 C 10,4 C 10,4 C 59 % 70 % 59 % 1021,2 hPa 0,0 l/m 5,8 km/h (2 Bft) SO 135 2,7 C 10,4 C 7,0 km/h (2 Bft)
03.06.2023 04:16 9,6 C 10,4 C 10,4 C 10,4 C 59 % 70 % 59 % 1021,2 hPa 0,0 l/m 5,3 km/h (1 Bft) O-NO 67 2,7 C 10,4 C 17,4 km/h (3 Bft)
03.06.2023 04:14 9,6 C 10,4 C 10,5 C 10,4 C 59 % 71 % 59 % 1021,2 hPa 0,0 l/m 4,8 km/h (1 Bft) O 90 2,7 C 10,4 C 17,4 km/h (3 Bft)
03.06.2023 04:12 9,6 C 10,4 C 10,5 C 10,4 C 59 % 71 % 59 % 1021,2 hPa 0,0 l/m 4,2 km/h (1 Bft) O 90 2,7 C 10,4 C 14,7 km/h (3 Bft)
03.06.2023 04:10 9,7 C 10,4 C 10,5 C 10,4 C 61 % 72 % 61 % 1021,2 hPa 0,0 l/m 2,7 km/h (1 Bft) O 90 3,2 C 10,4 C 12,8 km/h (3 Bft)
03.06.2023 04:08 9,9 C 10,5 C 10,6 C 10,5 C 61 % 72 % 61 % 1021,1 hPa 0,0 l/m 1,8 km/h (1 Bft) NO 45 3,3 C 10,5 C 10,1 km/h (2 Bft)
03.06.2023 04:06 10,1 C 10,5 C 10,7 C 10,5 C 61 % 72 % 61 % 1021,1 hPa 0,0 l/m 1,4 km/h (1 Bft) S-SW 202 3,3 C 10,5 C 7,2 km/h (2 Bft)
03.06.2023 04:04 10,2 C 10,5 C 10,7 C 10,5 C 61 % 72 % 61 % 1021,1 hPa 0,0 l/m 1,3 km/h (1 Bft) NO 45 3,3 C 10,5 C 7,2 km/h (2 Bft)
03.06.2023 04:02 10,1 C 10,5 C 10,7 C 10,5 C 61 % 72 % 61 % 1021,1 hPa 0,0 l/m 1,1 km/h (1 Bft) O 90 3,3 C 10,5 C 0,0 km/h (0 Bft)
03.06.2023 04:00 10,1 C 10,5 C 10,7 C 10,5 C 61 % 72 % 61 % 1021,1 hPa 0,0 l/m 1,3 km/h (1 Bft) O 90 3,3 C 10,5 C 5,1 km/h (1 Bft)
03.06.2023 03:58 10,1 C 10,5 C 10,7 C 10,5 C 61 % 73 % 61 % 1021,1 hPa 0,0 l/m 1,8 km/h (1 Bft) SO 135 3,3 C 10,5 C 5,1 km/h (1 Bft)
03.06.2023 03:56 10,2 C 10,6 C 10,7 C 10,6 C 61 % 73 % 61 % 1021,1 hPa 0,0 l/m 1,8 km/h (1 Bft) NO 45 3,4 C 10,6 C 4,8 km/h (1 Bft)
03.06.2023 03:54 10,2 C 10,6 C 10,8 C 10,6 C 61 % 73 % 61 % 1021,1 hPa 0,0 l/m 2,4 km/h (1 Bft) N 360 3,4 C 10,6 C 5,3 km/h (1 Bft)
03.06.2023 03:52 10,2 C 10,6 C 10,8 C 10,6 C 62 % 73 % 62 % 1021,1 hPa 0,0 l/m 2,9 km/h (1 Bft) SO 135 3,6 C 10,6 C 5,3 km/h (1 Bft)
03.06.2023 03:50 10,1 C 10,6 C 10,8 C 10,6 C 62 % 72 % 62 % 1021,1 hPa 0,0 l/m 2,9 km/h (1 Bft) O-SO 112 3,6 C 10,6 C 8,9 km/h (2 Bft)
03.06.2023 03:48 10,1 C 10,6 C 10,8 C 10,6 C 62 % 72 % 62 % 1021,2 hPa 0,0 l/m 3,2 km/h (1 Bft) O 90 3,6 C 10,6 C 8,9 km/h (2 Bft)
03.06.2023 03:46 10,2 C 10,6 C 10,9 C 10,6 C 62 % 72 % 62 % 1021,2 hPa 0,0 l/m 2,9 km/h (1 Bft) O-NO 67 3,6 C 10,6 C 8,7 km/h (2 Bft)
03.06.2023 03:44 10,1 C 10,7 C 10,9 C 10,7 C 62 % 72 % 62 % 1021,2 hPa 0,0 l/m 3,5 km/h (1 Bft) O 90 3,7 C 10,7 C 8,7 km/h (2 Bft)
03.06.2023 03:42 10,2 C 10,7 C 10,9 C 10,7 C 62 % 72 % 62 % 1021,2 hPa 0,0 l/m 2,7 km/h (1 Bft) NO 45 3,7 C 10,7 C 8,7 km/h (2 Bft)
03.06.2023 03:40 10,1 C 10,7 C 10,9 C 10,7 C 61 % 72 % 61 % 1021,2 hPa 0,0 l/m 2,7 km/h (1 Bft) O-NO 67 3,5 C 10,7 C 5,3 km/h (1 Bft)
03.06.2023 03:38 10,1 C 10,7 C 10,9 C 10,7 C 61 % 72 % 61 % 1021,2 hPa 0,0 l/m 3,1 km/h (1 Bft) NO 45 3,5 C 10,7 C 5,3 km/h (1 Bft)
03.06.2023 03:36 10,1 C 10,8 C 10,9 C 10,8 C 61 % 72 % 61 % 1021,2 hPa 0,0 l/m 3,1 km/h (1 Bft) NO 45 3,6 C 10,8 C 9,2 km/h (2 Bft)
03.06.2023 03:34 10,3 C 10,8 C 10,9 C 10,8 C 61 % 72 % 61 % 1021,2 hPa 0,0 l/m 2,7 km/h (1 Bft) O-NO 67 3,6 C 10,8 C 9,2 km/h (2 Bft)
03.06.2023 03:32 10,3 C 10,8 C 11,0 C 10,8 C 61 % 72 % 61 % 1021,2 hPa 0,0 l/m 2,7 km/h (1 Bft) O-SO 112 3,6 C 10,8 C 11,6 km/h (2 Bft)
03.06.2023 03:30 10,1 C 10,8 C 11,0 C 10,8 C 61 % 72 % 61 % 1021,2 hPa 0,0 l/m 3,2 km/h (1 Bft) O 90 3,6 C 10,8 C 11,6 km/h (2 Bft)
03.06.2023 03:28 10,3 C 10,9 C 11,0 C 10,9 C 61 % 71 % 61 % 1021,0 hPa 0,0 l/m 2,7 km/h (1 Bft) O 90 3,7 C 10,9 C 8,4 km/h (2 Bft)
03.06.2023 03:26 10,1 C 10,9 C 11,1 C 10,9 C 61 % 72 % 61 % 1021,0 hPa 0,0 l/m 2,3 km/h (1 Bft) O-NO 67 3,7 C 10,9 C 5,1 km/h (1 Bft)
03.06.2023 03:24 10,1 C 10,9 C 11,1 C 10,9 C 61 % 72 % 61 % 1021,0 hPa 0,0 l/m 2,3 km/h (1 Bft) O 90 3,7 C 10,9 C 6,3 km/h (2 Bft)
03.06.2023 03:22 10,1 C 10,9 C 11,1 C 10,9 C 61 % 72 % 61 % 1021,0 hPa 0,0 l/m 2,3 km/h (1 Bft) NO 45 3,7 C 10,9 C 6,3 km/h (2 Bft)
03.06.2023 03:20 10,3 C 10,9 C 11,1 C 10,9 C 61 % 72 % 61 % 1021,0 hPa 0,0 l/m 2,4 km/h (1 Bft) NO 45 3,7 C 10,9 C 6,5 km/h (2 Bft)
03.06.2023 03:18 10,3 C 10,9 C 11,1 C 10,9 C 61 % 72 % 61 % 1021,0 hPa 0,0 l/m 3,4 km/h (1 Bft) NO 45 3,7 C 10,9 C 6,5 km/h (2 Bft)
03.06.2023 03:16 10,3 C 11,0 C 11,2 C 11,0 C 61 % 72 % 61 % 1021,0 hPa 0,0 l/m 3,9 km/h (1 Bft) NO 45 3,8 C 11,0 C 6,5 km/h (2 Bft)
03.06.2023 03:14 10,3 C 11,0 C 11,2 C 11,0 C 61 % 72 % 61 % 1021,0 hPa 0,0 l/m 4,5 km/h (1 Bft) NO 45 3,8 C 11,0 C 6,5 km/h (2 Bft)
03.06.2023 03:12 10,1 C 11,0 C 11,2 C 11,0 C 61 % 72 % 61 % 1021,0 hPa 0,0 l/m 5,1 km/h (1 Bft) O-NO 67 3,8 C 11,0 C 9,2 km/h (2 Bft)
03.06.2023 03:10 10,5 C 11,3 C 11,4 C 11,3 C 59 % 71 % 59 % 1021,0 hPa 0,0 l/m 3,4 km/h (1 Bft) NO 45 3,6 C 11,3 C 9,2 km/h (2 Bft)
03.06.2023 03:08 10,5 C 11,3 C 11,4 C 11,3 C 59 % 71 % 59 % 1021,0 hPa 0,0 l/m 3,4 km/h (1 Bft) NO 45 3,6 C 11,3 C 9,2 km/h (2 Bft)
03.06.2023 03:06 10,5 C 11,3 C 11,4 C 11,3 C 59 % 71 % 59 % 1021,0 hPa 0,0 l/m 3,4 km/h (1 Bft) NO 45 3,6 C 11,3 C 9,2 km/h (2 Bft)
03.06.2023 03:04 10,5 C 11,3 C 11,4 C 11,3 C 59 % 71 % 59 % 1021,0 hPa 0,0 l/m 3,4 km/h (1 Bft) NO 45 3,6 C 11,3 C 9,2 km/h (2 Bft)
03.06.2023 03:02 10,5 C 11,3 C 11,4 C 11,3 C 59 % 71 % 59 % 1021,0 hPa 0,0 l/m 3,4 km/h (1 Bft) NO 45 3,6 C 11,3 C 9,2 km/h (2 Bft)
03.06.2023 03:00 10,5 C 11,3 C 11,4 C 11,3 C 59 % 71 % 59 % 1021,0 hPa 0,0 l/m 3,4 km/h (1 Bft) NO 45 3,6 C 11,3 C 9,2 km/h (2 Bft)
03.06.2023 02:58 10,5 C 11,3 C 11,4 C 11,3 C 60 % 71 % 60 % 1021,0 hPa 0,0 l/m 4,5 km/h (1 Bft) O-NO 67 3,8 C 11,3 C 9,7 km/h (2 Bft)
03.06.2023 02:56 10,5 C 11,4 C 11,5 C 11,4 C 60 % 71 % 60 % 1021,0 hPa 0,0 l/m 5,8 km/h (2 Bft) O 90 3,9 C 11,4 C 9,7 km/h (2 Bft)
03.06.2023 02:54 10,5 C 11,4 C 11,5 C 11,4 C 60 % 71 % 60 % 1021,0 hPa 0,0 l/m 6,3 km/h (2 Bft) NO 45 3,9 C 11,4 C 4,8 km/h (1 Bft)
03.06.2023 02:52 10,5 C 11,4 C 11,5 C 11,4 C 61 % 71 % 61 % 1021,0 hPa 0,0 l/m 7,4 km/h (2 Bft) O 90 4,2 C 11,4 C 17,1 km/h (3 Bft)
03.06.2023 02:50 10,4 C 11,4 C 11,5 C 11,4 C 61 % 71 % 61 % 1021,0 hPa 0,0 l/m 7,6 km/h (2 Bft) O 90 4,2 C 11,4 C 17,1 km/h (3 Bft)
03.06.2023 02:48 10,4 C 11,5 C 11,5 C 11,5 C 61 % 71 % 61 % 1021,0 hPa 0,0 l/m 6,8 km/h (2 Bft) O-NO 67 4,2 C 11,5 C 22,7 km/h (4 Bft)
03.06.2023 02:46 10,4 C 11,4 C 11,6 C 11,4 C 61 % 71 % 61 % 1021,0 hPa 0,0 l/m 5,8 km/h (2 Bft) N-NO 22 4,2 C 11,4 C 22,7 km/h (4 Bft)
03.06.2023 02:44 10,4 C 11,5 C 11,6 C 11,5 C 60 % 71 % 60 % 1021,0 hPa 0,0 l/m 5,1 km/h (1 Bft) O 90 4,0 C 11,5 C 14,0 km/h (3 Bft)
03.06.2023 02:42 10,4 C 11,4 C 11,6 C 11,4 C 59 % 71 % 59 % 1021,0 hPa 0,0 l/m 4,2 km/h (1 Bft) O 90 3,7 C 11,4 C 14,0 km/h (3 Bft)
03.06.2023 02:40 10,4 C 11,4 C 11,6 C 11,4 C 59 % 71 % 59 % 1021,0 hPa 0,0 l/m 3,9 km/h (1 Bft) O-NO 67 3,7 C 11,4 C 12,1 km/h (2 Bft)
03.06.2023 02:38 10,4 C 11,4 C 11,6 C 11,4 C 59 % 70 % 59 % 1021,0 hPa 0,0 l/m 3,5 km/h (1 Bft) O-SO 112 3,7 C 11,4 C 8,7 km/h (2 Bft)
03.06.2023 02:36 10,4 C 11,5 C 11,6 C 11,5 C 59 % 70 % 59 % 1021,0 hPa 0,0 l/m 3,7 km/h (1 Bft) NO 45 3,8 C 11,5 C 8,7 km/h (2 Bft)
03.06.2023 02:34 10,5 C 11,5 C 11,7 C 11,5 C 59 % 70 % 59 % 1021,0 hPa 0,0 l/m 3,1 km/h (1 Bft) O-NO 67 3,8 C 11,5 C 6,5 km/h (2 Bft)
03.06.2023 02:32 10,4 C 11,5 C 11,7 C 11,5 C 59 % 70 % 59 % 1021,0 hPa 0,0 l/m 2,9 km/h (1 Bft) O-NO 67 3,8 C 11,5 C 7,0 km/h (2 Bft)
03.06.2023 02:30 10,5 C 11,5 C 11,7 C 11,5 C 59 % 70 % 59 % 1021,0 hPa 0,0 l/m 3,1 km/h (1 Bft) O-NO 67 3,8 C 11,5 C 7,0 km/h (2 Bft)
03.06.2023 02:28 10,7 C 11,6 C 11,8 C 11,6 C 59 % 70 % 59 % 1020,4 hPa 0,0 l/m 2,9 km/h (1 Bft) O-NO 67 3,9 C 11,6 C 5,8 km/h (2 Bft)
03.06.2023 02:26 10,7 C 11,6 C 11,8 C 11,6 C 59 % 70 % 59 % 1020,4 hPa 0,0 l/m 3,1 km/h (1 Bft) O 90 3,9 C 11,6 C 5,8 km/h (2 Bft)
03.06.2023 02:24 10,8 C 11,6 C 11,8 C 11,6 C 59 % 70 % 59 % 1020,4 hPa 0,0 l/m 3,2 km/h (1 Bft) O 90 3,9 C 11,6 C 4,1 km/h (1 Bft)
03.06.2023 02:22 10,8 C 11,7 C 11,9 C 11,7 C 59 % 70 % 59 % 1020,4 hPa 0,0 l/m 4,0 km/h (1 Bft) O 90 4,0 C 11,7 C 11,6 km/h (2 Bft)
03.06.2023 02:20 10,8 C 11,8 C 11,9 C 11,8 C 59 % 70 % 59 % 1020,4 hPa 0,0 l/m 4,0 km/h (1 Bft) N 360 4,1 C 11,8 C 11,6 km/h (2 Bft)
03.06.2023 02:18 10,8 C 11,8 C 11,9 C 11,8 C 59 % 70 % 59 % 1020,4 hPa 0,0 l/m 4,5 km/h (1 Bft) NO 45 4,1 C 11,8 C 4,6 km/h (1 Bft)
03.06.2023 02:16 10,8 C 11,8 C 11,9 C 11,8 C 59 % 70 % 59 % 1020,4 hPa 0,0 l/m 5,3 km/h (1 Bft) O-NO 67 4,1 C 11,8 C 8,4 km/h (2 Bft)
03.06.2023 02:14 10,8 C 11,8 C 12,0 C 11,8 C 59 % 70 % 59 % 1020,4 hPa 0,0 l/m 5,1 km/h (1 Bft) O-SO 112 4,1 C 11,8 C 9,9 km/h (2 Bft)
03.06.2023 02:12 10,8 C 11,8 C 12,0 C 11,8 C 59 % 70 % 59 % 1020,4 hPa 0,0 l/m 4,3 km/h (1 Bft) O 90 4,1 C 11,8 C 9,9 km/h (2 Bft)
03.06.2023 02:10 10,8 C 11,9 C 12,0 C 11,9 C 59 % 70 % 59 % 1020,4 hPa 0,0 l/m 3,9 km/h (1 Bft) O-NO 67 4,1 C 11,9 C 10,4 km/h (2 Bft)
03.06.2023 02:08 10,8 C 12,0 C 12,1 C 12,0 C 59 % 69 % 59 % 1020,8 hPa 0,0 l/m 3,4 km/h (1 Bft) O-NO 67 4,2 C 12,0 C 20,3 km/h (4 Bft)
03.06.2023 02:06 10,8 C 12,0 C 12,2 C 12,0 C 59 % 69 % 59 % 1020,8 hPa 0,0 l/m 2,6 km/h (1 Bft) O-NO 67 4,2 C 12,0 C 11,1 km/h (2 Bft)
03.06.2023 02:04 10,9 C 12,0 C 12,2 C 12,0 C 59 % 69 % 59 % 1020,8 hPa 0,0 l/m 2,4 km/h (1 Bft) O 90 4,2 C 12,0 C 3,1 km/h (1 Bft)
03.06.2023 02:02 10,9 C 12,0 C 12,2 C 12,0 C 59 % 69 % 59 % 1020,8 hPa 0,0 l/m 3,2 km/h (1 Bft) O-NO 67 4,2 C 12,0 C 5,3 km/h (1 Bft)
03.06.2023 02:00 11,1 C 12,0 C 12,2 C 12,0 C 59 % 69 % 59 % 1020,8 hPa 0,0 l/m 3,2 km/h (1 Bft) NO 45 4,2 C 12,0 C 2,7 km/h (1 Bft)
03.06.2023 01:58 10,9 C 12,0 C 12,2 C 12,0 C 59 % 69 % 59 % 1020,8 hPa 0,0 l/m 3,4 km/h (1 Bft) NO 45 4,2 C 12,0 C 13,8 km/h (3 Bft)
03.06.2023 01:56 10,9 C 12,1 C 12,2 C 12,1 C 58 % 69 % 58 % 1020,8 hPa 0,0 l/m 3,7 km/h (1 Bft) NO 45 4,1 C 12,1 C 7,5 km/h (2 Bft)
03.06.2023 01:54 10,9 C 12,1 C 12,3 C 12,1 C 58 % 68 % 58 % 1020,8 hPa 0,0 l/m 4,0 km/h (1 Bft) W-NW 292 4,1 C 12,1 C 6,8 km/h (2 Bft)
03.06.2023 01:52 10,9 C 12,1 C 12,3 C 12,1 C 58 % 68 % 58 % 1020,8 hPa 0,0 l/m 3,9 km/h (1 Bft) N 360 4,1 C 12,1 C 6,8 km/h (2 Bft)
03.06.2023 01:50 10,9 C 12,2 C 12,3 C 12,2 C 58 % 68 % 58 % 1020,8 hPa 0,0 l/m 3,4 km/h (1 Bft) O 90 4,2 C 12,2 C 6,8 km/h (2 Bft)
03.06.2023 01:48 10,8 C 12,3 C 12,3 C 12,3 C 58 % 68 % 58 % 1020,6 hPa 0,0 l/m 3,2 km/h (1 Bft) O-NO 67 4,3 C 12,3 C 13,5 km/h (3 Bft)
03.06.2023 01:46 10,8 C 12,3 C 12,3 C 12,3 C 58 % 68 % 58 % 1020,6 hPa 0,0 l/m 3,2 km/h (1 Bft) O 90 4,3 C 12,3 C 8,7 km/h (2 Bft)
03.06.2023 01:44 10,9 C 12,3 C 12,4 C 12,3 C 58 % 67 % 58 % 1020,6 hPa 0,0 l/m 2,7 km/h (1 Bft) S-SO 157 4,3 C 12,3 C 8,7 km/h (2 Bft)
03.06.2023 01:42 11,1 C 12,3 C 12,4 C 12,3 C 58 % 67 % 58 % 1020,6 hPa 0,0 l/m 2,4 km/h (1 Bft) O-NO 67 4,3 C 12,3 C 5,8 km/h (2 Bft)
03.06.2023 01:40 10,9 C 12,3 C 12,4 C 12,3 C 58 % 67 % 58 % 1020,6 hPa 0,0 l/m 2,3 km/h (1 Bft) NO 45 4,3 C 12,3 C 7,7 km/h (2 Bft)
03.06.2023 01:38 11,1 C 12,3 C 12,4 C 12,3 C 58 % 67 % 58 % 1020,6 hPa 0,0 l/m 1,9 km/h (1 Bft) SO 135 4,3 C 12,3 C 7,7 km/h (2 Bft)
03.06.2023 01:36 11,1 C 12,3 C 12,4 C 12,3 C 58 % 67 % 58 % 1020,6 hPa 0,0 l/m 2,3 km/h (1 Bft) NO 45 4,3 C 12,3 C 6,8 km/h (2 Bft)
03.06.2023 01:34 11,1 C 12,4 C 12,5 C 12,4 C 58 % 67 % 58 % 1020,6 hPa 0,0 l/m 2,3 km/h (1 Bft) O-NO 67 4,4 C 12,4 C 7,2 km/h (2 Bft)
03.06.2023 01:32 11,1 C 12,4 C 12,5 C 12,4 C 58 % 67 % 58 % 1020,6 hPa 0,0 l/m 2,6 km/h (1 Bft) O-NO 67 4,4 C 12,4 C 7,2 km/h (2 Bft)
03.06.2023 01:30 11,1 C 12,4 C 12,5 C 12,4 C 58 % 68 % 58 % 1020,6 hPa 0,0 l/m 2,9 km/h (1 Bft) O-NO 67 4,4 C 12,4 C 5,6 km/h (1 Bft)
03.06.2023 01:28 11,1 C 12,5 C 12,5 C 12,5 C 58 % 68 % 58 % 1020,4 hPa 0,0 l/m 3,2 km/h (1 Bft) O-NO 67 4,5 C 12,5 C 12,6 km/h (3 Bft)
03.06.2023 01:26 10,9 C 12,5 C 12,5 C 12,5 C 58 % 68 % 58 % 1020,4 hPa 0,0 l/m 2,9 km/h (1 Bft) S-SO 157 4,5 C 12,5 C 5,8 km/h (2 Bft)
03.06.2023 01:24 11,1 C 12,5 C 12,5 C 12,5 C 58 % 68 % 58 % 1020,4 hPa 0,0 l/m 2,4 km/h (1 Bft) N-NW 337 4,5 C 12,5 C 8,9 km/h (2 Bft)
03.06.2023 01:22 10,9 C 12,5 C 12,5 C 12,5 C 58 % 68 % 58 % 1020,4 hPa 0,0 l/m 1,8 km/h (1 Bft) O 90 4,5 C 12,5 C 12,6 km/h (3 Bft)
03.06.2023 01:20 11,1 C 12,5 C 12,5 C 12,5 C 58 % 68 % 58 % 1020,4 hPa 0,0 l/m 1,3 km/h (1 Bft) O 90 4,5 C 12,5 C 12,6 km/h (3 Bft)
03.06.2023 01:18 10,9 C 12,5 C 12,5 C 12,5 C 58 % 68 % 58 % 1020,4 hPa 0,0 l/m 0,3 km/h (0 Bft) S 180 4,5 C 12,5 C 0,0 km/h (0 Bft)
03.06.2023 01:16 10,9 C 12,4 C 12,4 C 12,4 C 58 % 68 % 58 % 1020,4 hPa 0,0 l/m 0,3 km/h (0 Bft) S 180 4,4 C 12,4 C 0,0 km/h (0 Bft)
03.06.2023 01:14 11,1 C 12,4 C 12,4 C 12,4 C 58 % 68 % 58 % 1020,4 hPa 0,0 l/m 0,5 km/h (0 Bft) S-SO 157 4,4 C 12,4 C 0,0 km/h (0 Bft)
03.06.2023 01:12 10,9 C 12,4 C 12,4 C 12,4 C 58 % 68 % 58 % 1020,4 hPa 0,0 l/m 0,6 km/h (0 Bft) NO 45 4,4 C 12,4 C 0,0 km/h (0 Bft)
03.06.2023 01:10 10,8 C 12,3 C 12,3 C 12,3 C 58 % 69 % 58 % 1020,4 hPa 0,0 l/m 0,6 km/h (0 Bft) O 90 4,3 C 12,3 C 0,0 km/h (0 Bft)
03.06.2023 01:08 10,8 C 12,3 C 12,2 C 12,2 C 58 % 68 % 58 % 1020,4 hPa 0,0 l/m 0,5 km/h (0 Bft) N 360 4,3 C 12,2 C 0,0 km/h (0 Bft)
03.06.2023 01:06 10,8 C 12,3 C 12,1 C 12,1 C 58 % 68 % 58 % 1020,4 hPa 0,0 l/m 0,6 km/h (0 Bft) SO 135 4,3 C 12,1 C 6,0 km/h (2 Bft)
03.06.2023 01:04 10,8 C 12,2 C 12,1 C 12,1 C 58 % 67 % 58 % 1020,4 hPa 0,0 l/m 0,5 km/h (0 Bft) O 90 4,2 C 12,1 C 2,4 km/h (1 Bft)
03.06.2023 01:02 10,7 C 12,0 C 12,2 C 12,0 C 58 % 67 % 58 % 1020,4 hPa 0,0 l/m 0,5 km/h (0 Bft) NO 45 4,0 C 12,0 C 2,4 km/h (1 Bft)
03.06.2023 01:00 10,8 C 11,9 C 12,2 C 11,9 C 58 % 67 % 58 % 1020,4 hPa 0,0 l/m 1,6 km/h (1 Bft) SO 135 3,9 C 11,9 C 0,0 km/h (0 Bft)
03.06.2023 00:58 10,8 C 11,9 C 12,2 C 11,9 C 59 % 67 % 59 % 1020,4 hPa 0,0 l/m 2,1 km/h (1 Bft) S-SO 157 4,1 C 11,9 C 3,1 km/h (1 Bft)
03.06.2023 00:56 10,7 C 12,0 C 12,1 C 12,0 C 59 % 67 % 59 % 1020,4 hPa 0,0 l/m 2,9 km/h (1 Bft) S-SO 157 4,2 C 12,0 C 3,1 km/h (1 Bft)
03.06.2023 00:54 10,7 C 12,0 C 12,1 C 12,0 C 59 % 67 % 59 % 1020,4 hPa 0,0 l/m 3,5 km/h (1 Bft) SO 135 4,2 C 12,0 C 0,0 km/h (0 Bft)
03.06.2023 00:52 10,4 C 12,2 C 12,1 C 12,1 C 58 % 67 % 58 % 1020,4 hPa 0,0 l/m 4,0 km/h (1 Bft) NO 45 4,2 C 12,1 C 6,0 km/h (2 Bft)
03.06.2023 00:50 10,4 C 12,1 C 12,0 C 12,0 C 58 % 67 % 58 % 1020,4 hPa 0,0 l/m 3,7 km/h (1 Bft) O-NO 67 4,1 C 12,0 C 6,0 km/h (2 Bft)
03.06.2023 00:48 10,4 C 12,1 C 12,0 C 12,0 C 58 % 67 % 58 % 1020,2 hPa 0,0 l/m 3,2 km/h (1 Bft) NO 45 4,1 C 12,0 C 9,4 km/h (2 Bft)
03.06.2023 00:46 10,3 C 12,1 C 11,9 C 11,9 C 58 % 67 % 58 % 1020,2 hPa 0,0 l/m 3,1 km/h (1 Bft) NO 45 4,1 C 11,9 C 9,4 km/h (2 Bft)
03.06.2023 00:44 10,1 C 12,1 C 11,9 C 11,9 C 58 % 67 % 58 % 1020,2 hPa 0,0 l/m 2,6 km/h (1 Bft) NO 45 4,1 C 11,9 C 8,0 km/h (2 Bft)
03.06.2023 00:42 10,1 C 11,9 C 11,9 C 11,9 C 58 % 67 % 58 % 1020,2 hPa 0,0 l/m 2,6 km/h (1 Bft) N-NW 337 3,9 C 11,9 C 5,6 km/h (1 Bft)
03.06.2023 00:40 10,1 C 12,0 C 11,9 C 11,9 C 58 % 66 % 58 % 1020,2 hPa 0,0 l/m 2,4 km/h (1 Bft) O-SO 112 4,0 C 11,9 C 5,1 km/h (1 Bft)
03.06.2023 00:38 9,9 C 12,1 C 11,9 C 11,9 C 58 % 66 % 58 % 1020,2 hPa 0,0 l/m 2,7 km/h (1 Bft) O 90 4,1 C 11,9 C 7,7 km/h (2 Bft)
03.06.2023 00:36 9,9 C 12,2 C 11,9 C 11,9 C 58 % 66 % 58 % 1020,2 hPa 0,0 l/m 2,3 km/h (1 Bft) O 90 4,2 C 11,9 C 7,2 km/h (2 Bft)
03.06.2023 00:34 9,7 C 12,1 C 11,9 C 11,9 C 58 % 65 % 58 % 1020,2 hPa 0,0 l/m 1,6 km/h (1 Bft) O-NO 67 4,1 C 11,9 C 6,3 km/h (2 Bft)
03.06.2023 00:32 9,8 C 11,8 C 11,9 C 11,8 C 58 % 65 % 58 % 1020,2 hPa 0,0 l/m 1,1 km/h (1 Bft) N-NW 337 3,8 C 11,8 C 6,3 km/h (2 Bft)
03.06.2023 00:30 9,8 C 11,7 C 11,9 C 11,7 C 58 % 65 % 58 % 1020,2 hPa 0,0 l/m 0,6 km/h (0 Bft) O 90 3,7 C 11,7 C 6,5 km/h (2 Bft)
03.06.2023 00:28 9,7 C 11,7 C 11,9 C 11,7 C 58 % 65 % 58 % 1020,1 hPa 0,0 l/m 0,6 km/h (0 Bft) O 90 3,7 C 11,7 C 6,5 km/h (2 Bft)
03.06.2023 00:26 9,7 C 11,6 C 11,9 C 11,6 C 57 % 65 % 57 % 1020,1 hPa 0,0 l/m 0,2 km/h (0 Bft) NW 315 3,4 C 11,6 C 2,9 km/h (1 Bft)
03.06.2023 00:24 9,6 C 11,6 C 11,9 C 11,6 C 57 % 65 % 57 % 1020,1 hPa 0,0 l/m 0,0 km/h (0 Bft) O 90 3,4 C 11,6 C 0,0 km/h (0 Bft)
03.06.2023 00:22 9,4 C 11,8 C 12,0 C 11,8 C 57 % 65 % 57 % 1020,1 hPa 0,0 l/m 0,2 km/h (0 Bft) W-SW 247 3,6 C 11,8 C 0,0 km/h (0 Bft)
03.06.2023 00:20 9,3 C 11,8 C 12,0 C 11,8 C 57 % 65 % 57 % 1020,1 hPa 0,0 l/m 0,3 km/h (0 Bft) W-SW 247 3,6 C 11,8 C 0,0 km/h (0 Bft)
03.06.2023 00:18 9,3 C 11,8 C 12,1 C 11,8 C 57 % 65 % 57 % 1020,1 hPa 0,0 l/m 0,3 km/h (0 Bft) O 90 3,6 C 11,8 C 4,3 km/h (1 Bft)
03.06.2023 00:16 9,5 C 12,0 C 12,1 C 12,0 C 57 % 65 % 57 % 1020,1 hPa 0,0 l/m 0,3 km/h (0 Bft) NO 45 3,8 C 12,0 C 3,1 km/h (1 Bft)
03.06.2023 00:14 9,6 C 12,1 C 12,1 C 12,1 C 56 % 65 % 56 % 1020,1 hPa 0,0 l/m 0,5 km/h (0 Bft) SO 135 3,6 C 12,1 C 0,0 km/h (0 Bft)
03.06.2023 00:12 9,9 C 12,1 C 12,1 C 12,1 C 56 % 65 % 56 % 1020,1 hPa 0,0 l/m 0,8 km/h (0 Bft) NO 45 3,6 C 12,1 C 2,7 km/h (1 Bft)
03.06.2023 00:10 9,9 C 12,4 C 12,4 C 12,4 C 56 % 64 % 56 % 1020,1 hPa 0,0 l/m 1,8 km/h (1 Bft) O 90 3,9 C 12,4 C 2,7 km/h (1 Bft)
03.06.2023 00:08 9,9 C 12,4 C 12,4 C 12,4 C 56 % 64 % 56 % 1019,8 hPa 0,0 l/m 1,8 km/h (1 Bft) O 90 3,9 C 12,4 C 2,7 km/h (1 Bft)
03.06.2023 00:06 9,9 C 12,4 C 12,4 C 12,4 C 56 % 64 % 56 % 1019,8 hPa 0,0 l/m 1,8 km/h (1 Bft) O 90 3,9 C 12,4 C 2,7 km/h (1 Bft)
03.06.2023 00:04 9,9 C 12,4 C 12,4 C 12,4 C 56 % 64 % 56 % 1019,8 hPa 0,0 l/m 1,8 km/h (1 Bft) O 90 3,9 C 12,4 C 2,7 km/h (1 Bft)
03.06.2023 00:02 9,9 C 12,4 C 12,4 C 12,4 C 56 % 64 % 56 % 1019,8 hPa 0,0 l/m 1,8 km/h (1 Bft) O 90 3,9 C 12,4 C 3,6 km/h (1 Bft)
03.06.2023 00:00 9,9 C 12,4 C 12,4 C 12,4 C 56 % 64 % 56 % 1019,8 hPa 0,0 l/m 1,9 km/h (1 Bft) NO 45 3,9 C 12,4 C 3,6 km/h (1 Bft)
02.06.2023 23:58 9,9 C 12,5 C 12,5 C 12,5 C 55 % 64 % 55 % 1019,8 hPa 0,0 l/m 1,9 km/h (1 Bft) NO 45 3,7 C 12,5 C 3,6 km/h (1 Bft)
02.06.2023 23:56 10,0 C 12,6 C 12,5 C 12,5 C 55 % 64 % 55 % 1019,8 hPa 0,0 l/m 2,1 km/h (1 Bft) O 90 3,8 C 12,5 C 2,7 km/h (1 Bft)
02.06.2023 23:54 10,0 C 12,6 C 12,5 C 12,5 C 55 % 64 % 55 % 1019,8 hPa 0,0 l/m 2,1 km/h (1 Bft) NO 45 3,8 C 12,5 C 5,1 km/h (1 Bft)
02.06.2023 23:52 10,1 C 12,8 C 12,5 C 12,5 C 56 % 64 % 56 % 1019,8 hPa 0,0 l/m 1,8 km/h (1 Bft) NO 45 4,2 C 12,5 C 6,8 km/h (2 Bft)
02.06.2023 23:50 10,2 C 12,8 C 12,6 C 12,6 C 56 % 64 % 56 % 1019,8 hPa 0,0 l/m 1,3 km/h (1 Bft) O-NO 67 4,2 C 12,6 C 6,8 km/h (2 Bft)
02.06.2023 23:48 10,2 C 12,7 C 12,6 C 12,6 C 55 % 63 % 55 % 1019,8 hPa 0,0 l/m 1,1 km/h (1 Bft) N-NO 22 3,9 C 12,6 C 4,6 km/h (1 Bft)
02.06.2023 23:46 10,3 C 12,7 C 12,7 C 12,7 C 55 % 63 % 55 % 1019,8 hPa 0,0 l/m 0,8 km/h (0 Bft) O-NO 67 3,9 C 12,7 C 4,6 km/h (1 Bft)
02.06.2023 23:44 10,3 C 12,7 C 12,8 C 12,7 C 55 % 63 % 55 % 1019,8 hPa 0,0 l/m 1,4 km/h (1 Bft) N-NO 22 3,9 C 12,7 C 2,7 km/h (1 Bft)
02.06.2023 23:42 10,3 C 12,9 C 12,8 C 12,8 C 55 % 63 % 55 % 1019,8 hPa 0,0 l/m 1,6 km/h (1 Bft) N 360 4,1 C 12,8 C 4,8 km/h (1 Bft)
02.06.2023 23:40 10,5 C 13,0 C 12,9 C 12,9 C 55 % 63 % 55 % 1019,8 hPa 0,0 l/m 2,3 km/h (1 Bft) NO 45 4,2 C 12,9 C 6,0 km/h (2 Bft)
02.06.2023 23:38 10,5 C 13,2 C 12,9 C 12,9 C 55 % 63 % 55 % 1019,8 hPa 0,0 l/m 3,1 km/h (1 Bft) NO 45 4,4 C 12,9 C 6,0 km/h (2 Bft)
02.06.2023 23:36 10,6 C 13,2 C 13,0 C 13,0 C 55 % 63 % 55 % 1019,8 hPa 0,0 l/m 3,5 km/h (1 Bft) NO 45 4,4 C 13,0 C 5,1 km/h (1 Bft)
02.06.2023 23:34 10,5 C 13,2 C 13,0 C 13,0 C 55 % 63 % 55 % 1019,8 hPa 0,0 l/m 3,7 km/h (1 Bft) NO 45 4,4 C 13,0 C 5,8 km/h (2 Bft)
02.06.2023 23:32 10,5 C 13,2 C 13,1 C 13,1 C 55 % 63 % 55 % 1019,8 hPa 0,0 l/m 4,0 km/h (1 Bft) O-NO 67 4,4 C 13,1 C 8,7 km/h (2 Bft)
02.06.2023 23:30 10,3 C 13,2 C 13,1 C 13,1 C 55 % 63 % 55 % 1019,8 hPa 0,0 l/m 4,2 km/h (1 Bft) NO 45 4,4 C 13,1 C 8,7 km/h (2 Bft)
02.06.2023 23:28 10,2 C 13,1 C 13,2 C 13,1 C 55 % 63 % 55 % 1019,8 hPa 0,0 l/m 4,2 km/h (1 Bft) O-NO 67 4,3 C 13,1 C 8,4 km/h (2 Bft)
02.06.2023 23:26 10,2 C 13,1 C 13,2 C 13,1 C 55 % 63 % 55 % 1019,8 hPa 0,0 l/m 3,9 km/h (1 Bft) N 360 4,3 C 13,1 C 8,4 km/h (2 Bft)
02.06.2023 23:24 10,2 C 13,1 C 13,2 C 13,1 C 55 % 63 % 55 % 1019,8 hPa 0,0 l/m 3,5 km/h (1 Bft) NO 45 4,3 C 13,1 C 7,2 km/h (2 Bft)
02.06.2023 23:22 10,1 C 13,2 C 13,2 C 13,2 C 55 % 63 % 55 % 1019,8 hPa 0,0 l/m 3,7 km/h (1 Bft) NO 45 4,4 C 13,2 C 7,2 km/h (2 Bft)
02.06.2023 23:20 10,1 C 13,0 C 13,2 C 13,0 C 54 % 63 % 54 % 1019,8 hPa 0,0 l/m 3,5 km/h (1 Bft) NO 45 3,9 C 13,0 C 6,5 km/h (2 Bft)
02.06.2023 23:18 10,2 C 13,0 C 13,2 C 13,0 C 54 % 63 % 54 % 1019,8 hPa 0,0 l/m 3,2 km/h (1 Bft) N 360 3,9 C 13,0 C 6,3 km/h (2 Bft)
02.06.2023 23:16 10,1 C 13,1 C 13,2 C 13,1 C 54 % 63 % 54 % 1019,8 hPa 0,0 l/m 3,2 km/h (1 Bft) NO 45 4,0 C 13,1 C 6,3 km/h (2 Bft)
02.06.2023 23:14 10,1 C 13,1 C 13,2 C 13,1 C 54 % 63 % 54 % 1019,8 hPa 0,0 l/m 3,4 km/h (1 Bft) N-NO 22 4,0 C 13,1 C 8,0 km/h (2 Bft)
02.06.2023 23:12 10,0 C 13,1 C 13,2 C 13,1 C 54 % 63 % 54 % 1019,8 hPa 0,0 l/m 3,5 km/h (1 Bft) NO 45 4,0 C 13,1 C 8,0 km/h (2 Bft)
02.06.2023 23:10 10,0 C 13,1 C 13,2 C 13,1 C 54 % 63 % 54 % 1019,8 hPa 0,0 l/m 3,9 km/h (1 Bft) O-NO 67 4,0 C 13,1 C 5,3 km/h (1 Bft)
02.06.2023 23:08 10,1 C 13,2 C 13,2 C 13,2 C 54 % 63 % 54 % 1019,6 hPa 0,0 l/m 4,2 km/h (1 Bft) NO 45 4,1 C 13,2 C 5,3 km/h (1 Bft)
02.06.2023 23:06 10,1 C 13,2 C 13,3 C 13,2 C 54 % 63 % 54 % 1019,6 hPa 0,0 l/m 4,8 km/h (1 Bft) O-NO 67 4,1 C 13,2 C 5,6 km/h (1 Bft)
02.06.2023 23:04 10,1 C 13,3 C 13,3 C 13,3 C 54 % 63 % 54 % 1019,6 hPa 0,0 l/m 4,8 km/h (1 Bft) NW 315 4,2 C 13,3 C 5,6 km/h (1 Bft)
02.06.2023 23:02 10,1 C 13,5 C 13,2 C 13,2 C 54 % 63 % 54 % 1019,6 hPa 0,0 l/m 5,5 km/h (1 Bft) N-NW 337 4,4 C 13,2 C 10,1 km/h (2 Bft)
02.06.2023 23:00 10,0 C 13,6 C 13,2 C 13,2 C 54 % 63 % 54 % 1019,6 hPa 0,0 l/m 5,6 km/h (1 Bft) NO 45 4,5 C 13,2 C 10,1 km/h (2 Bft)
02.06.2023 22:58 10,0 C 13,6 C 13,2 C 13,2 C 54 % 63 % 54 % 1019,6 hPa 0,0 l/m 5,0 km/h (1 Bft) N 360 4,5 C 13,2 C 10,1 km/h (2 Bft)
02.06.2023 22:56 10,0 C 13,5 C 13,3 C 13,3 C 54 % 63 % 54 % 1019,6 hPa 0,0 l/m 4,5 km/h (1 Bft) N-NO 22 4,4 C 13,3 C 10,1 km/h (2 Bft)
02.06.2023 22:54 10,0 C 13,5 C 13,3 C 13,3 C 54 % 63 % 54 % 1019,6 hPa 0,0 l/m 4,0 km/h (1 Bft) NO 45 4,4 C 13,3 C 9,2 km/h (2 Bft)
02.06.2023 22:52 10,0 C 13,5 C 13,2 C 13,2 C 54 % 63 % 54 % 1019,6 hPa 0,0 l/m 3,5 km/h (1 Bft) N 360 4,4 C 13,2 C 9,2 km/h (2 Bft)
02.06.2023 22:50 10,0 C 13,4 C 13,2 C 13,2 C 54 % 63 % 54 % 1019,6 hPa 0,0 l/m 3,1 km/h (1 Bft) NO 45 4,3 C 13,2 C 8,9 km/h (2 Bft)
02.06.2023 22:48 10,1 C 13,5 C 13,3 C 13,3 C 55 % 63 % 55 % 1019,4 hPa 0,0 l/m 2,6 km/h (1 Bft) N 360 4,6 C 13,3 C 6,8 km/h (2 Bft)
02.06.2023 22:46 10,4 C 13,5 C 13,2 C 13,2 C 55 % 63 % 55 % 1019,4 hPa 0,0 l/m 2,3 km/h (1 Bft) NO 45 4,6 C 13,2 C 7,7 km/h (2 Bft)
02.06.2023 22:44 10,4 C 13,5 C 13,2 C 13,2 C 55 % 63 % 55 % 1019,4 hPa 0,0 l/m 2,3 km/h (1 Bft) N 360 4,6 C 13,2 C 7,7 km/h (2 Bft)
02.06.2023 22:42 10,6 C 13,3 C 13,1 C 13,1 C 55 % 64 % 55 % 1019,4 hPa 0,0 l/m 1,9 km/h (1 Bft) N-NW 337 4,5 C 13,1 C 6,0 km/h (2 Bft)
02.06.2023 22:40 10,9 C 13,3 C 13,1 C 13,1 C 55 % 64 % 55 % 1019,4 hPa 0,0 l/m 1,4 km/h (1 Bft) NO 45 4,5 C 13,1 C 5,6 km/h (1 Bft)
02.06.2023 22:38 10,9 C 13,2 C 13,0 C 13,0 C 55 % 64 % 55 % 1019,4 hPa 0,0 l/m 1,0 km/h (0 Bft) N 360 4,4 C 13,0 C 0,0 km/h (0 Bft)
02.06.2023 22:36 10,7 C 13,2 C 12,9 C 12,9 C 55 % 64 % 55 % 1019,4 hPa 0,0 l/m 0,8 km/h (0 Bft) N 360 4,4 C 12,9 C 0,0 km/h (0 Bft)
02.06.2023 22:34 10,6 C 13,0 C 12,8 C 12,8 C 55 % 64 % 55 % 1019,4 hPa 0,0 l/m 0,5 km/h (0 Bft) NW 315 4,2 C 12,8 C 0,0 km/h (0 Bft)
02.06.2023 22:32 10,7 C 12,5 C 12,8 C 12,5 C 55 % 64 % 55 % 1019,4 hPa 0,0 l/m 0,2 km/h (0 Bft) NO 45 3,7 C 12,5 C 2,7 km/h (1 Bft)
02.06.2023 22:30 10,7 C 12,5 C 12,6 C 12,5 C 55 % 65 % 55 % 1019,4 hPa 0,0 l/m 0,2 km/h (0 Bft) NO 45 3,7 C 12,5 C 2,7 km/h (1 Bft)
02.06.2023 22:28 10,4 C 12,2 C 12,5 C 12,2 C 55 % 65 % 55 % 1019,1 hPa 0,0 l/m 0,0 km/h (0 Bft) S-SO 157 3,4 C 12,2 C 0,0 km/h (0 Bft)
02.06.2023 22:26 10,4 C 12,2 C 12,4 C 12,2 C 55 % 65 % 55 % 1019,1 hPa 0,0 l/m 0,0 km/h (0 Bft) O 90 3,4 C 12,2 C 0,0 km/h (0 Bft)
02.06.2023 22:24 10,4 C 12,2 C 12,3 C 12,2 C 55 % 65 % 55 % 1019,1 hPa 0,0 l/m 0,0 km/h (0 Bft) O-NO 67 3,4 C 12,2 C 0,0 km/h (0 Bft)
02.06.2023 22:22 10,3 C 12,3 C 12,2 C 12,2 C 54 % 65 % 54 % 1019,1 hPa 0,0 l/m 0,0 km/h (0 Bft) W-NW 292 3,3 C 12,2 C 0,0 km/h (0 Bft)
02.06.2023 22:20 10,3 C 12,3 C 12,2 C 12,2 C 54 % 65 % 54 % 1019,1 hPa 0,0 l/m 0,0 km/h (0 Bft) W-NW 292 3,3 C 12,2 C 0,0 km/h (0 Bft)
02.06.2023 22:18 10,1 C 12,5 C 12,2 C 12,2 C 54 % 65 % 54 % 1019,1 hPa 0,0 l/m 0,0 km/h (0 Bft) W-NW 292 3,5 C 12,2 C 0,0 km/h (0 Bft)
02.06.2023 22:16 10,0 C 12,7 C 12,3 C 12,3 C 53 % 64 % 53 % 1019,1 hPa 0,0 l/m 0,0 km/h (0 Bft) W-NW 292 3,4 C 12,3 C 0,0 km/h (0 Bft)
02.06.2023 22:14 9,9 C 12,9 C 12,7 C 12,7 C 53 % 63 % 53 % 1019,1 hPa 0,0 l/m 0,0 km/h (0 Bft) W-NW 292 3,6 C 12,7 C 0,0 km/h (0 Bft)
02.06.2023 22:12 9,8 C 13,0 C 13,0 C 13,0 C 53 % 63 % 53 % 1019,1 hPa 0,0 l/m 0,0 km/h (0 Bft) W-NW 292 3,6 C 13,0 C 0,0 km/h (0 Bft)
02.06.2023 22:10 9,8 C 13,5 C 13,3 C 13,3 C 52 % 62 % 52 % 1019,1 hPa 0,0 l/m 0,3 km/h (0 Bft) NO 45 3,8 C 13,3 C 0,0 km/h (0 Bft)
02.06.2023 22:08 9,8 C 13,7 C 13,7 C 13,7 C 52 % 62 % 52 % 1018,8 hPa 0,0 l/m 0,6 km/h (0 Bft) O 90 4,0 C 13,7 C 0,0 km/h (0 Bft)
02.06.2023 22:06 10,0 C 13,8 C 13,7 C 13,7 C 52 % 62 % 52 % 1018,8 hPa 0,0 l/m 1,1 km/h (1 Bft) O-NO 67 4,1 C 13,7 C 0,0 km/h (0 Bft)
02.06.2023 22:04 10,2 C 14,0 C 13,8 C 13,8 C 52 % 61 % 52 % 1018,8 hPa 0,0 l/m 1,4 km/h (1 Bft) N 360 4,3 C 13,8 C 0,0 km/h (0 Bft)
02.06.2023 22:02 10,3 C 14,1 C 14,0 C 14,0 C 52 % 61 % 52 % 1018,8 hPa 0,0 l/m 1,8 km/h (1 Bft) NO 45 4,4 C 14,0 C 0,0 km/h (0 Bft)
02.06.2023 22:00 10,3 C 14,1 C 14,0 C 14,0 C 52 % 61 % 52 % 1018,8 hPa 0,0 l/m 1,6 km/h (1 Bft) NO 45 4,4 C 14,0 C 4,8 km/h (1 Bft)
02.06.2023 21:58 10,2 C 14,1 C 14,0 C 14,0 C 52 % 61 % 52 % 1018,8 hPa 0,0 l/m 1,6 km/h (1 Bft) NO 45 4,4 C 14,0 C 5,3 km/h (1 Bft)
02.06.2023 21:56 10,3 C 14,1 C 14,1 C 14,1 C 52 % 61 % 52 % 1018,8 hPa 0,0 l/m 1,4 km/h (1 Bft) O-NO 67 4,4 C 14,1 C 5,3 km/h (1 Bft)
02.06.2023 21:54 10,3 C 14,1 C 14,2 C 14,1 C 52 % 61 % 52 % 1018,8 hPa 0,0 l/m 1,3 km/h (1 Bft) SO 135 4,4 C 14,1 C 4,3 km/h (1 Bft)
02.06.2023 21:52 10,4 C 14,2 C 14,3 C 14,2 C 52 % 61 % 52 % 1018,8 hPa 0,0 l/m 1,6 km/h (1 Bft) N 360 4,5 C 14,2 C 4,3 km/h (1 Bft)
02.06.2023 21:50 10,7 C 14,2 C 14,4 C 14,2 C 52 % 60 % 52 % 1018,8 hPa 0,0 l/m 1,9 km/h (1 Bft) O-NO 67 4,5 C 14,2 C 4,1 km/h (1 Bft)
02.06.2023 21:48 10,7 C 14,3 C 14,4 C 14,3 C 52 % 60 % 52 % 1018,4 hPa 0,0 l/m 2,4 km/h (1 Bft) N 360 4,6 C 14,3 C 4,1 km/h (1 Bft)
02.06.2023 21:46 10,9 C 14,4 C 14,4 C 14,4 C 52 % 60 % 52 % 1018,4 hPa 0,0 l/m 2,7 km/h (1 Bft) O-NO 67 4,7 C 14,4 C 4,3 km/h (1 Bft)
02.06.2023 21:44 11,1 C 14,4 C 14,6 C 14,4 C 52 % 60 % 52 % 1018,4 hPa 0,0 l/m 2,9 km/h (1 Bft) N-NO 22 4,7 C 14,4 C 5,8 km/h (2 Bft)
02.06.2023 21:42 11,2 C 14,5 C 14,6 C 14,5 C 52 % 60 % 52 % 1018,4 hPa 0,0 l/m 2,9 km/h (1 Bft) NO 45 4,8 C 14,5 C 10,4 km/h (2 Bft)
02.06.2023 21:40 11,4 C 14,5 C 14,7 C 14,5 C 52 % 60 % 52 % 1018,4 hPa 0,0 l/m 3,1 km/h (1 Bft) O-NO 67 4,8 C 14,5 C 10,4 km/h (2 Bft)
02.06.2023 21:38 11,5 C 14,5 C 14,7 C 14,5 C 52 % 60 % 52 % 1018,4 hPa 0,0 l/m 3,5 km/h (1 Bft) O-NO 67 4,8 C 14,5 C 6,3 km/h (2 Bft)
02.06.2023 21:36 11,7 C 14,5 C 14,8 C 14,5 C 52 % 60 % 52 % 1018,4 hPa 0,0 l/m 3,4 km/h (1 Bft) N-NO 22 4,8 C 14,5 C 6,3 km/h (2 Bft)
02.06.2023 21:34 11,8 C 14,6 C 14,9 C 14,6 C 52 % 60 % 52 % 1018,4 hPa 0,0 l/m 3,4 km/h (1 Bft) O-NO 67 4,9 C 14,6 C 5,3 km/h (1 Bft)
02.06.2023 21:32 11,9 C 14,8 C 15,0 C 14,8 C 52 % 60 % 52 % 1018,4 hPa 0,0 l/m 3,9 km/h (1 Bft) O-NO 67 5,0 C 14,8 C 4,8 km/h (1 Bft)
02.06.2023 21:30 11,8 C 14,7 C 15,1 C 14,7 C 52 % 60 % 52 % 1018,4 hPa 0,0 l/m 4,2 km/h (1 Bft) SO 135 5,0 C 14,7 C 11,6 km/h (2 Bft)
02.06.2023 21:28 11,9 C 14,8 C 15,1 C 14,8 C 52 % 60 % 52 % 1018,5 hPa 0,0 l/m 4,5 km/h (1 Bft) NO 45 5,0 C 14,8 C 11,6 km/h (2 Bft)
02.06.2023 21:26 12,1 C 14,8 C 15,3 C 14,8 C 51 % 60 % 51 % 1018,5 hPa 0,0 l/m 4,7 km/h (1 Bft) O-NO 67 4,8 C 14,8 C 3,9 km/h (1 Bft)
02.06.2023 21:24 12,2 C 14,8 C 15,3 C 14,8 C 51 % 60 % 51 % 1018,5 hPa 0,0 l/m 4,8 km/h (1 Bft) N 360 4,8 C 14,8 C 4,6 km/h (1 Bft)
02.06.2023 21:22 12,3 C 15,1 C 15,3 C 15,1 C 50 % 60 % 50 % 1018,5 hPa 0,0 l/m 5,6 km/h (1 Bft) N-NO 22 4,8 C 15,1 C 12,8 km/h (3 Bft)
02.06.2023 21:20 12,5 C 15,1 C 15,5 C 15,1 C 50 % 58 % 50 % 1018,5 hPa 0,0 l/m 5,5 km/h (1 Bft) NO 45 4,8 C 15,1 C 12,8 km/h (3 Bft)
02.06.2023 21:18 12,8 C 15,2 C 15,5 C 15,2 C 50 % 58 % 50 % 1018,5 hPa 0,0 l/m 5,6 km/h (1 Bft) O-NO 67 4,8 C 15,2 C 10,1 km/h (2 Bft)
02.06.2023 21:16 12,9 C 15,4 C 15,5 C 15,4 C 50 % 58 % 50 % 1018,5 hPa 0,0 l/m 6,0 km/h (2 Bft) N 360 5,0 C 15,4 C 9,4 km/h (2 Bft)
02.06.2023 21:14 13,1 C 15,4 C 15,6 C 15,4 C 50 % 57 % 50 % 1018,5 hPa 0,0 l/m 6,1 km/h (2 Bft) NO 45 5,0 C 15,4 C 10,6 km/h (2 Bft)
02.06.2023 21:12 13,3 C 15,4 C 15,7 C 15,4 C 50 % 57 % 50 % 1018,5 hPa 0,0 l/m 6,4 km/h (2 Bft) O-NO 67 5,0 C 15,4 C 10,6 km/h (2 Bft)
02.06.2023 21:10 13,3 C 15,5 C 15,7 C 15,5 C 50 % 57 % 50 % 1018,5 hPa 0,0 l/m 6,6 km/h (2 Bft) NO 45 5,1 C 15,5 C 13,3 km/h (3 Bft)
02.06.2023 21:08 13,4 C 15,6 C 15,7 C 15,6 C 50 % 57 % 50 % 1018,4 hPa 0,0 l/m 6,6 km/h (2 Bft) N-NO 22 5,2 C 15,6 C 13,3 km/h (3 Bft)
02.06.2023 21:06 13,4 C 15,6 C 15,8 C 15,6 C 50 % 57 % 50 % 1018,4 hPa 0,0 l/m 6,3 km/h (2 Bft) N-NO 22 5,2 C 15,6 C 12,8 km/h (3 Bft)
02.06.2023 21:04 13,5 C 15,5 C 15,9 C 15,5 C 50 % 58 % 50 % 1018,4 hPa 0,0 l/m 6,4 km/h (2 Bft) NO 45 5,1 C 15,5 C 12,8 km/h (3 Bft)
02.06.2023 21:02 13,5 C 15,6 C 15,9 C 15,6 C 50 % 58 % 50 % 1018,4 hPa 0,0 l/m 6,1 km/h (2 Bft) NO 45 5,2 C 15,6 C 10,9 km/h (2 Bft)
02.06.2023 21:00 13,6 C 15,6 C 15,9 C 15,6 C 50 % 58 % 50 % 1018,4 hPa 0,0 l/m 6,1 km/h (2 Bft) N 360 5,2 C 15,6 C 15,4 km/h (3 Bft)
02.06.2023 20:58 13,7 C 15,7 C 15,9 C 15,7 C 50 % 58 % 50 % 1018,4 hPa 0,0 l/m 6,3 km/h (2 Bft) N 360 5,3 C 15,7 C 15,4 km/h (3 Bft)
02.06.2023 20:56 13,6 C 15,7 C 16,1 C 15,7 C 50 % 57 % 50 % 1018,4 hPa 0,0 l/m 6,1 km/h (2 Bft) NO 45 5,3 C 15,7 C 11,6 km/h (2 Bft)
02.06.2023 20:54 13,7 C 15,7 C 16,1 C 15,7 C 50 % 57 % 50 % 1018,4 hPa 0,0 l/m 5,6 km/h (1 Bft) O-NO 67 5,3 C 15,7 C 9,4 km/h (2 Bft)
02.06.2023 20:52 13,6 C 15,7 C 16,1 C 15,7 C 50 % 57 % 50 % 1018,4 hPa 0,0 l/m 5,8 km/h (2 Bft) S-SO 157 5,3 C 15,7 C 9,9 km/h (2 Bft)
02.06.2023 20:50 13,8 C 15,6 C 16,1 C 15,6 C 50 % 57 % 50 % 1018,4 hPa 0,0 l/m 5,6 km/h (1 Bft) NO 45 5,2 C 15,6 C 9,9 km/h (2 Bft)
02.06.2023 20:48 13,8 C 15,6 C 16,1 C 15,6 C 50 % 57 % 50 % 1017,9 hPa 0,0 l/m 5,8 km/h (2 Bft) NO 45 5,2 C 15,6 C 8,9 km/h (2 Bft)
02.06.2023 20:46 13,7 C 15,7 C 16,2 C 15,7 C 50 % 57 % 50 % 1017,9 hPa 0,0 l/m 6,1 km/h (2 Bft) NO 45 5,3 C 15,7 C 12,6 km/h (3 Bft)
02.06.2023 20:44 13,7 C 15,8 C 16,2 C 15,8 C 50 % 57 % 50 % 1017,9 hPa 0,0 l/m 6,4 km/h (2 Bft) N 360 5,4 C 15,8 C 12,6 km/h (3 Bft)
02.06.2023 20:42 13,9 C 15,8 C 16,2 C 15,8 C 50 % 57 % 50 % 1017,9 hPa 0,0 l/m 6,9 km/h (2 Bft) NO 45 5,4 C 15,8 C 11,8 km/h (2 Bft)
02.06.2023 20:40 13,9 C 15,7 C 16,2 C 15,7 C 50 % 57 % 50 % 1017,9 hPa 0,0 l/m 7,1 km/h (2 Bft) NO 45 5,3 C 15,7 C 11,8 km/h (2 Bft)
02.06.2023 20:38 13,9 C 15,8 C 16,2 C 15,8 C 50 % 57 % 50 % 1017,9 hPa 0,0 l/m 7,2 km/h (2 Bft) NO 45 5,4 C 15,8 C 9,7 km/h (2 Bft)
02.06.2023 20:36 13,9 C 15,7 C 16,3 C 15,7 C 50 % 57 % 50 % 1017,9 hPa 0,0 l/m 7,7 km/h (2 Bft) N 360 5,3 C 15,7 C 11,6 km/h (2 Bft)
02.06.2023 20:34 14,0 C 15,8 C 16,4 C 15,8 C 50 % 57 % 50 % 1017,9 hPa 0,0 l/m 7,7 km/h (2 Bft) N-NW 337 5,4 C 15,8 C 14,2 km/h (3 Bft)
02.06.2023 20:32 14,1 C 15,8 C 16,4 C 15,8 C 50 % 57 % 50 % 1017,9 hPa 0,0 l/m 7,9 km/h (2 Bft) N-NW 337 5,4 C 15,8 C 15,7 km/h (3 Bft)
02.06.2023 20:30 14,1 C 15,9 C 16,4 C 15,9 C 50 % 57 % 50 % 1017,9 hPa 0,0 l/m 8,0 km/h (2 Bft) W-SW 247 5,5 C 15,9 C 15,7 km/h (3 Bft)
02.06.2023 20:28 14,1 C 15,9 C 16,4 C 15,9 C 50 % 57 % 50 % 1017,5 hPa 0,0 l/m 7,7 km/h (2 Bft) NO 45 5,5 C 15,9 C 12,3 km/h (3 Bft)
02.06.2023 20:26 14,0 C 16,0 C 16,4 C 16,0 C 50 % 57 % 50 % 1017,5 hPa 0,0 l/m 7,6 km/h (2 Bft) NO 45 5,6 C 16,0 C 12,3 km/h (3 Bft)
02.06.2023 20:24 14,0 C 15,9 C 16,4 C 15,9 C 50 % 57 % 50 % 1017,5 hPa 0,0 l/m 7,1 km/h (2 Bft) NO 45 5,5 C 15,9 C 19,3 km/h (3 Bft)
02.06.2023 20:22 13,9 C 16,0 C 16,4 C 16,0 C 50 % 57 % 50 % 1017,5 hPa 0,0 l/m 7,6 km/h (2 Bft) N 360 5,6 C 16,0 C 19,3 km/h (3 Bft)
02.06.2023 20:20 13,9 C 15,9 C 16,5 C 15,9 C 50 % 57 % 50 % 1017,5 hPa 0,0 l/m 7,2 km/h (2 Bft) NO 45 5,5 C 15,9 C 13,5 km/h (3 Bft)
02.06.2023 20:18 13,9 C 15,9 C 16,5 C 15,9 C 50 % 57 % 50 % 1017,5 hPa 0,0 l/m 7,7 km/h (2 Bft) N-NO 22 5,5 C 15,9 C 11,6 km/h (2 Bft)
02.06.2023 20:16 13,9 C 15,9 C 16,6 C 15,9 C 50 % 57 % 50 % 1017,5 hPa 0,0 l/m 7,9 km/h (2 Bft) N-NW 337 5,5 C 15,9 C 11,8 km/h (2 Bft)
02.06.2023 20:14 13,9 C 16,0 C 16,7 C 16,0 C 50 % 57 % 50 % 1017,5 hPa 0,0 l/m 8,7 km/h (2 Bft) NO 45 5,6 C 16,0 C 12,1 km/h (2 Bft)
02.06.2023 20:12 14,0 C 16,0 C 16,7 C 16,0 C 50 % 57 % 50 % 1017,5 hPa 0,0 l/m 9,2 km/h (2 Bft) N 360 5,6 C 16,0 C 15,0 km/h (3 Bft)
02.06.2023 20:10 14,1 C 16,0 C 16,9 C 16,0 C 50 % 56 % 50 % 1017,5 hPa 0,0 l/m 9,2 km/h (2 Bft) NO 45 5,6 C 16,0 C 21,2 km/h (4 Bft)
02.06.2023 20:08 14,1 C 16,1 C 16,9 C 16,1 C 49 % 56 % 49 % 1017,1 hPa 0,0 l/m 9,2 km/h (2 Bft) NO 45 5,4 C 16,1 C 21,2 km/h (4 Bft)
02.06.2023 20:06 14,2 C 16,1 C 16,9 C 16,1 C 49 % 56 % 49 % 1017,1 hPa 0,0 l/m 9,5 km/h (2 Bft) N 360 5,4 C 16,1 C 13,3 km/h (3 Bft)
02.06.2023 20:04 14,4 C 16,1 C 16,9 C 16,1 C 49 % 56 % 49 % 1017,1 hPa 0,0 l/m 9,7 km/h (2 Bft) NO 45 5,4 C 16,1 C 13,3 km/h (3 Bft)
02.06.2023 20:02 14,4 C 16,2 C 16,9 C 16,2 C 49 % 56 % 49 % 1017,1 hPa 0,0 l/m 9,7 km/h (2 Bft) N-NW 337 5,5 C 16,2 C 19,1 km/h (3 Bft)
02.06.2023 20:00 14,5 C 16,2 C 17,0 C 16,2 C 49 % 56 % 49 % 1017,1 hPa 0,0 l/m 9,0 km/h (2 Bft) NO 45 5,5 C 16,2 C 12,1 km/h (2 Bft)
02.06.2023 19:58 14,6 C 16,3 C 17,2 C 16,3 C 49 % 56 % 49 % 1017,1 hPa 0,0 l/m 10,1 km/h (2 Bft) N-NO 22 5,6 C 16,3 C 22,9 km/h (4 Bft)
02.06.2023 19:56 14,7 C 16,4 C 17,2 C 16,4 C 49 % 56 % 49 % 1017,1 hPa 0,0 l/m 10,6 km/h (2 Bft) N 360 5,7 C 16,4 C 22,9 km/h (4 Bft)
02.06.2023 19:54 14,8 C 16,3 C 17,3 C 16,3 C 49 % 56 % 49 % 1017,1 hPa 0,0 l/m 10,1 km/h (2 Bft) NO 45 5,6 C 16,3 C 17,1 km/h (3 Bft)
02.06.2023 19:52 14,9 C 16,4 C 17,3 C 16,4 C 49 % 56 % 49 % 1017,1 hPa 0,0 l/m 10,1 km/h (2 Bft) NO 45 5,7 C 16,4 C 13,5 km/h (3 Bft)
02.06.2023 19:50 15,1 C 16,5 C 17,4 C 16,5 C 49 % 56 % 49 % 1017,1 hPa 0,0 l/m 10,9 km/h (2 Bft) NO 45 5,8 C 16,5 C 19,6 km/h (3 Bft)
02.06.2023 19:48 15,3 C 16,5 C 17,5 C 16,5 C 48 % 56 % 48 % 1017,1 hPa 0,0 l/m 9,8 km/h (2 Bft) N-NW 337 5,5 C 16,5 C 26,8 km/h (4 Bft)
02.06.2023 19:46 15,6 C 16,7 C 17,6 C 16,7 C 48 % 56 % 48 % 1017,1 hPa 0,0 l/m 9,5 km/h (2 Bft) N 360 5,6 C 16,7 C 26,8 km/h (4 Bft)
02.06.2023 19:44 15,8 C 16,7 C 17,8 C 16,7 C 48 % 56 % 48 % 1017,1 hPa 0,0 l/m 9,0 km/h (2 Bft) N 360 5,6 C 16,7 C 15,4 km/h (3 Bft)
02.06.2023 19:42 15,9 C 16,8 C 17,8 C 16,8 C 48 % 56 % 48 % 1017,1 hPa 0,0 l/m 9,2 km/h (2 Bft) NO 45 5,7 C 16,8 C 19,8 km/h (3 Bft)
02.06.2023 19:40 16,0 C 16,8 C 17,8 C 16,8 C 48 % 56 % 48 % 1017,1 hPa 0,0 l/m 9,5 km/h (2 Bft) NO 45 5,7 C 16,8 C 19,8 km/h (3 Bft)
02.06.2023 19:38 16,1 C 16,9 C 18,0 C 16,9 C 48 % 56 % 48 % 1017,1 hPa 0,0 l/m 9,3 km/h (2 Bft) N-NW 337 5,8 C 16,9 C 14,5 km/h (3 Bft)
02.06.2023 19:36 16,1 C 16,9 C 18,0 C 16,9 C 48 % 56 % 48 % 1017,1 hPa 0,0 l/m 9,7 km/h (2 Bft) N-NO 22 5,8 C 16,9 C 22,4 km/h (4 Bft)
02.06.2023 19:34 16,0 C 17,0 C 18,0 C 17,0 C 48 % 56 % 48 % 1017,1 hPa 0,0 l/m 10,0 km/h (2 Bft) NO 45 5,9 C 17,0 C 22,4 km/h (4 Bft)
02.06.2023 19:32 16,1 C 16,9 C 17,9 C 16,9 C 48 % 56 % 48 % 1017,1 hPa 0,0 l/m 9,8 km/h (2 Bft) NO 45 5,8 C 16,9 C 17,9 km/h (3 Bft)
02.06.2023 19:30 16,0 C 16,9 C 17,9 C 16,9 C 48 % 55 % 48 % 1017,1 hPa 0,0 l/m 9,5 km/h (2 Bft) N 360 5,8 C 16,9 C 16,7 km/h (3 Bft)
02.06.2023 19:28 15,9 C 16,8 C 18,0 C 16,8 C 48 % 55 % 48 % 1017,1 hPa 0,0 l/m 9,5 km/h (2 Bft) NO 45 5,7 C 16,8 C 15,2 km/h (3 Bft)
02.06.2023 19:26 15,9 C 16,8 C 18,1 C 16,8 C 48 % 55 % 48 % 1017,1 hPa 0,0 l/m 10,0 km/h (2 Bft) NO 45 5,7 C 16,8 C 21,7 km/h (4 Bft)
02.06.2023 19:24 16,0 C 16,9 C 18,1 C 16,9 C 48 % 55 % 48 % 1017,1 hPa 0,0 l/m 10,1 km/h (2 Bft) N-NW 337 5,8 C 16,9 C 21,7 km/h (4 Bft)
02.06.2023 19:22 16,1 C 16,9 C 18,2 C 16,9 C 48 % 55 % 48 % 1017,1 hPa 0,0 l/m 10,6 km/h (2 Bft) N-NW 337 5,8 C 16,9 C 23,4 km/h (4 Bft)
02.06.2023 19:20 16,3 C 17,0 C 18,3 C 17,0 C 48 % 55 % 48 % 1017,1 hPa 0,0 l/m 10,9 km/h (2 Bft) N-NO 22 5,9 C 17,0 C 23,4 km/h (4 Bft)
02.06.2023 19:18 16,4 C 17,1 C 18,6 C 17,1 C 48 % 55 % 48 % 1017,1 hPa 0,0 l/m 10,5 km/h (2 Bft) N-NO 22 6,0 C 17,1 C 18,3 km/h (3 Bft)
02.06.2023 19:16 16,6 C 17,1 C 18,6 C 17,1 C 48 % 55 % 48 % 1017,1 hPa 0,0 l/m 10,9 km/h (2 Bft) N 360 6,0 C 17,1 C 19,3 km/h (3 Bft)
02.06.2023 19:14 16,9 C 17,2 C 18,7 C 17,2 C 47 % 55 % 47 % 1017,1 hPa 0,0 l/m 10,6 km/h (2 Bft) NO 45 5,8 C 17,2 C 22,0 km/h (4 Bft)
02.06.2023 19:12 16,9 C 17,3 C 18,9 C 17,3 C 48 % 55 % 48 % 1017,1 hPa 0,0 l/m 10,1 km/h (2 Bft) N-NW 337 6,2 C 17,3 C 22,0 km/h (4 Bft)
02.06.2023 19:10 17,3 C 17,5 C 19,1 C 17,5 C 48 % 55 % 48 % 1017,1 hPa 0,0 l/m 10,0 km/h (2 Bft) N 360 6,4 C 17,5 C 15,0 km/h (3 Bft)
02.06.2023 19:08 17,4 C 17,6 C 19,1 C 17,6 C 48 % 55 % 48 % 1017,1 hPa 0,0 l/m 10,0 km/h (2 Bft) N-NO 22 6,5 C 17,6 C 25,8 km/h (4 Bft)
02.06.2023 19:06 17,7 C 17,6 C 19,2 C 17,6 C 47 % 55 % 47 % 1017,1 hPa 0,0 l/m 9,5 km/h (2 Bft) NO 45 6,2 C 17,6 C 25,8 km/h (4 Bft)
02.06.2023 19:04 17,7 C 17,7 C 19,2 C 17,7 C 48 % 55 % 48 % 1017,1 hPa 0,0 l/m 9,3 km/h (2 Bft) NO 45 6,6 C 17,7 C 15,0 km/h (3 Bft)
02.06.2023 19:02 17,8 C 17,7 C 19,2 C 17,7 C 48 % 55 % 48 % 1017,1 hPa 0,0 l/m 9,7 km/h (2 Bft) W 270 6,6 C 17,7 C 22,2 km/h (4 Bft)
02.06.2023 19:00 17,9 C 17,7 C 19,1 C 17,7 C 48 % 55 % 48 % 1017,1 hPa 0,0 l/m 9,8 km/h (2 Bft) N 360 6,6 C 17,7 C 20,3 km/h (4 Bft)
02.06.2023 18:58 17,9 C 17,7 C 19,1 C 17,7 C 48 % 55 % 48 % 1017,1 hPa 0,0 l/m 9,5 km/h (2 Bft) O-NO 67 6,6 C 17,7 C 18,6 km/h (3 Bft)
02.06.2023 18:56 17,9 C 17,7 C 19,1 C 17,7 C 48 % 55 % 48 % 1017,1 hPa 0,0 l/m 9,5 km/h (2 Bft) N-NW 337 6,6 C 17,7 C 17,1 km/h (3 Bft)
02.06.2023 18:54 17,8 C 17,7 C 19,1 C 17,7 C 48 % 55 % 48 % 1017,1 hPa 0,0 l/m 10,8 km/h (2 Bft) NO 45 6,6 C 17,7 C 22,9 km/h (4 Bft)
02.06.2023 18:52 17,6 C 17,7 C 19,1 C 17,7 C 48 % 55 % 48 % 1017,1 hPa 0,0 l/m 10,8 km/h (2 Bft) N 360 6,6 C 17,7 C 22,9 km/h (4 Bft)
02.06.2023 18:50 17,5 C 17,5 C 19,1 C 17,5 C 48 % 55 % 48 % 1017,1 hPa 0,0 l/m 10,5 km/h (2 Bft) N 360 6,4 C 17,5 C 17,4 km/h (3 Bft)
02.06.2023 18:48 17,6 C 17,6 C 19,1 C 17,6 C 48 % 55 % 48 % 1017,3 hPa 0,0 l/m 9,3 km/h (2 Bft) N-NW 337 6,5 C 17,6 C 18,1 km/h (3 Bft)
02.06.2023 18:46 17,6 C 17,7 C 19,2 C 17,7 C 48 % 55 % 48 % 1017,3 hPa 0,0 l/m 9,2 km/h (2 Bft) N 360 6,6 C 17,7 C 26,8 km/h (4 Bft)
02.06.2023 18:44 17,6 C 17,7 C 19,2 C 17,7 C 48 % 55 % 48 % 1017,3 hPa 0,0 l/m 9,3 km/h (2 Bft) NO 45 6,6 C 17,7 C 26,8 km/h (4 Bft)
02.06.2023 18:42 17,8 C 17,7 C 19,3 C 17,7 C 48 % 55 % 48 % 1017,3 hPa 0,0 l/m 8,9 km/h (2 Bft) N 360 6,6 C 17,7 C 17,9 km/h (3 Bft)
02.06.2023 18:40 18,2 C 17,9 C 19,5 C 17,9 C 49 % 55 % 49 % 1017,3 hPa 0,0 l/m 9,0 km/h (2 Bft) N-NW 337 7,0 C 17,9 C 12,8 km/h (3 Bft)
02.06.2023 18:38 18,6 C 18,1 C 19,6 C 18,1 C 48 % 55 % 48 % 1017,3 hPa 0,0 l/m 10,0 km/h (2 Bft) NO 45 6,9 C 18,1 C 20,8 km/h (4 Bft)
02.06.2023 18:36 18,7 C 18,1 C 19,9 C 18,1 C 47 % 55 % 47 % 1017,3 hPa 0,0 l/m 10,8 km/h (2 Bft) NO 45 6,6 C 18,1 C 24,6 km/h (4 Bft)
02.06.2023 18:34 19,1 C 18,0 C 19,9 C 18,0 C 47 % 55 % 47 % 1017,3 hPa 0,0 l/m 10,8 km/h (2 Bft) NW 315 6,5 C 18,0 C 24,6 km/h (4 Bft)
02.06.2023 18:32 19,2 C 18,1 C 19,9 C 18,1 C 47 % 55 % 47 % 1017,3 hPa 0,0 l/m 10,0 km/h (2 Bft) N 360 6,6 C 18,1 C 20,8 km/h (4 Bft)
02.06.2023 18:30 19,4 C 18,1 C 19,9 C 18,1 C 47 % 55 % 47 % 1017,3 hPa 0,0 l/m 10,1 km/h (2 Bft) N 360 6,6 C 18,1 C 20,8 km/h (4 Bft)
02.06.2023 18:28 19,4 C 18,2 C 19,9 C 18,2 C 47 % 55 % 47 % 1017,1 hPa 0,0 l/m 10,1 km/h (2 Bft) N-NO 22 6,7 C 18,2 C 19,8 km/h (3 Bft)
02.06.2023 18:26 19,3 C 18,3 C 19,9 C 18,3 C 47 % 55 % 47 % 1017,1 hPa 0,0 l/m 10,0 km/h (2 Bft) N 360 6,8 C 18,3 C 19,8 km/h (3 Bft)
02.06.2023 18:24 19,2 C 18,2 C 19,9 C 18,2 C 47 % 55 % 47 % 1017,1 hPa 0,0 l/m 10,1 km/h (2 Bft) N-NO 22 6,7 C 18,2 C 17,6 km/h (3 Bft)
02.06.2023 18:22 19,2 C 18,3 C 19,8 C 18,3 C 47 % 55 % 47 % 1017,1 hPa 0,0 l/m 10,1 km/h (2 Bft) N-NO 22 6,8 C 18,3 C 19,8 km/h (3 Bft)
02.06.2023 18:20 19,1 C 18,3 C 19,3 C 18,3 C 48 % 56 % 48 % 1017,1 hPa 0,0 l/m 10,8 km/h (2 Bft) N 360 7,1 C 18,3 C 19,8 km/h (3 Bft)
02.06.2023 18:18 19,0 C 18,4 C 19,3 C 18,4 C 48 % 56 % 48 % 1017,1 hPa 0,0 l/m 10,3 km/h (2 Bft) O 90 7,2 C 18,4 C 19,8 km/h (3 Bft)
02.06.2023 18:16 18,8 C 18,3 C 19,3 C 18,3 C 48 % 56 % 48 % 1017,1 hPa 0,0 l/m 9,7 km/h (2 Bft) NO 45 7,1 C 18,3 C 15,2 km/h (3 Bft)
02.06.2023 18:14 18,7 C 18,3 C 19,1 C 18,3 C 48 % 56 % 48 % 1017,1 hPa 0,0 l/m 9,5 km/h (2 Bft) NO 45 7,1 C 18,3 C 21,0 km/h (4 Bft)
02.06.2023 18:12 18,5 C 18,3 C 19,1 C 18,3 C 48 % 56 % 48 % 1017,1 hPa 0,0 l/m 9,3 km/h (2 Bft) N 360 7,1 C 18,3 C 21,0 km/h (4 Bft)
02.06.2023 18:10 18,2 C 18,2 C 19,2 C 18,2 C 48 % 56 % 48 % 1017,1 hPa 0,0 l/m 8,0 km/h (2 Bft) N 360 7,0 C 18,2 C 15,4 km/h (3 Bft)
02.06.2023 18:08 18,1 C 18,3 C 19,2 C 18,3 C 49 % 56 % 49 % 1017,2 hPa 0,0 l/m 7,9 km/h (2 Bft) NO 45 7,4 C 18,3 C 12,1 km/h (2 Bft)
02.06.2023 18:06 17,7 C 18,1 C 19,1 C 18,1 C 49 % 56 % 49 % 1017,2 hPa 0,0 l/m 9,0 km/h (2 Bft) N 360 7,2 C 18,1 C 20,3 km/h (4 Bft)
02.06.2023 18:04 17,5 C 18,0 C 19,2 C 18,0 C 49 % 56 % 49 % 1017,2 hPa 0,0 l/m 9,2 km/h (2 Bft) NO 45 7,1 C 18,0 C 20,3 km/h (4 Bft)
02.06.2023 18:02 17,4 C 18,0 C 19,1 C 18,0 C 49 % 56 % 49 % 1017,2 hPa 0,0 l/m 9,3 km/h (2 Bft) N 360 7,1 C 18,0 C 12,1 km/h (2 Bft)
02.06.2023 18:00 17,3 C 17,9 C 19,2 C 17,9 C 49 % 55 % 49 % 1017,2 hPa 0,0 l/m 9,5 km/h (2 Bft) O-NO 67 7,0 C 17,9 C 16,4 km/h (3 Bft)
02.06.2023 17:58 17,3 C 18,1 C 19,2 C 18,1 C 48 % 55 % 48 % 1017,2 hPa 0,0 l/m 9,8 km/h (2 Bft) NO 45 6,9 C 18,1 C 24,6 km/h (4 Bft)
02.06.2023 17:56 17,5 C 18,1 C 19,4 C 18,1 C 48 % 55 % 48 % 1017,2 hPa 0,0 l/m 10,0 km/h (2 Bft) N 360 6,9 C 18,1 C 24,6 km/h (4 Bft)
02.06.2023 17:54 17,7 C 18,1 C 19,6 C 18,1 C 48 % 54 % 48 % 1017,2 hPa 0,0 l/m 9,5 km/h (2 Bft) N-NO 22 6,9 C 18,1 C 25,6 km/h (4 Bft)
02.06.2023 17:52 17,8 C 18,2 C 19,6 C 18,2 C 48 % 54 % 48 % 1017,2 hPa 0,0 l/m 9,3 km/h (2 Bft) N-NW 337 7,0 C 18,2 C 25,6 km/h (4 Bft)
02.06.2023 17:50 17,7 C 18,2 C 19,6 C 18,2 C 48 % 54 % 48 % 1017,2 hPa 0,0 l/m 9,8 km/h (2 Bft) O-SO 112 7,0 C 18,2 C 15,9 km/h (3 Bft)
02.06.2023 17:48 17,7 C 18,2 C 19,8 C 18,2 C 48 % 54 % 48 % 1017,1 hPa 0,0 l/m 10,6 km/h (2 Bft) N-NW 337 7,0 C 18,2 C 15,9 km/h (3 Bft)
02.06.2023 17:46 17,7 C 18,3 C 19,8 C 18,3 C 48 % 54 % 48 % 1017,1 hPa 0,0 l/m 11,3 km/h (2 Bft) N-NW 337 7,1 C 18,3 C 16,7 km/h (3 Bft)
02.06.2023 17:44 17,9 C 18,4 C 20,0 C 18,4 C 47 % 54 % 47 % 1017,1 hPa 0,0 l/m 11,4 km/h (2 Bft) N 360 6,9 C 18,4 C 18,3 km/h (3 Bft)
02.06.2023 17:42 18,0 C 18,4 C 20,5 C 18,4 C 47 % 53 % 47 % 1017,1 hPa 0,0 l/m 11,6 km/h (2 Bft) N-NO 22 6,9 C 18,4 C 21,2 km/h (4 Bft)
02.06.2023 17:40 18,2 C 18,5 C 20,5 C 18,5 C 47 % 53 % 47 % 1017,1 hPa 0,0 l/m 11,1 km/h (2 Bft) NO 45 7,0 C 18,5 C 21,2 km/h (4 Bft)
02.06.2023 17:38 18,3 C 18,6 C 20,5 C 18,6 C 46 % 53 % 46 % 1017,1 hPa 0,0 l/m 10,9 km/h (2 Bft) NO 45 6,8 C 18,6 C 22,9 km/h (4 Bft)
02.06.2023 17:36 18,8 C 18,7 C 20,8 C 18,7 C 46 % 52 % 46 % 1017,1 hPa 0,0 l/m 10,5 km/h (2 Bft) NO 45 6,8 C 18,7 C 22,9 km/h (4 Bft)
02.06.2023 17:34 19,0 C 18,9 C 21,0 C 18,9 C 46 % 52 % 46 % 1017,1 hPa 0,0 l/m 10,3 km/h (2 Bft) NO 45 7,0 C 18,9 C 22,0 km/h (4 Bft)
02.06.2023 17:32 19,3 C 19,1 C 21,2 C 19,1 C 45 % 51 % 45 % 1017,1 hPa 0,0 l/m 10,9 km/h (2 Bft) O-NO 67 6,9 C 19,1 C 21,7 km/h (4 Bft)
02.06.2023 17:30 19,7 C 19,2 C 21,8 C 19,2 C 44 % 50 % 44 % 1017,1 hPa 0,0 l/m 11,4 km/h (2 Bft) N 360 6,7 C 19,2 C 18,1 km/h (3 Bft)
02.06.2023 17:28 20,5 C 19,4 C 21,8 C 19,4 C 44 % 50 % 44 % 1016,9 hPa 0,0 l/m 11,3 km/h (2 Bft) O-SO 112 6,8 C 19,4 C 18,1 km/h (3 Bft)
02.06.2023 17:26 21,9 C 19,7 C 22,2 C 19,7 C 44 % 50 % 44 % 1016,9 hPa 0,0 l/m 10,8 km/h (2 Bft) N-NW 337 7,1 C 19,7 C 19,1 km/h (3 Bft)
02.06.2023 17:24 22,1 C 19,9 C 22,3 C 19,9 C 43 % 50 % 43 % 1016,9 hPa 0,0 l/m 10,3 km/h (2 Bft) N 360 6,9 C 19,9 C 25,1 km/h (4 Bft)
02.06.2023 17:22 21,9 C 19,7 C 22,3 C 19,7 C 43 % 50 % 43 % 1016,9 hPa 0,0 l/m 9,8 km/h (2 Bft) N-NO 22 6,8 C 19,7 C 29,0 km/h (5 Bft)
02.06.2023 17:20 21,8 C 19,7 C 22,2 C 19,7 C 43 % 50 % 43 % 1016,9 hPa 0,0 l/m 8,9 km/h (2 Bft) N 360 6,8 C 19,7 C 29,0 km/h (5 Bft)
02.06.2023 17:18 21,9 C 19,7 C 22,2 C 19,7 C 43 % 50 % 43 % 1016,9 hPa 0,0 l/m 7,9 km/h (2 Bft) NW 315 6,8 C 19,7 C 15,0 km/h (3 Bft)
02.06.2023 17:16 23,1 C 19,8 C 22,3 C 19,8 C 43 % 50 % 43 % 1016,9 hPa 0,0 l/m 7,9 km/h (2 Bft) O-NO 67 6,9 C 19,8 C 15,0 km/h (3 Bft)
02.06.2023 17:14 23,5 C 20,0 C 22,1 C 20,0 C 42 % 49 % 42 % 1016,9 hPa 0,0 l/m 7,4 km/h (2 Bft) N-NO 22 6,7 C 20,0 C 15,4 km/h (3 Bft)
02.06.2023 17:12 23,6 C 20,1 C 22,4 C 20,1 C 42 % 48 % 42 % 1016,9 hPa 0,0 l/m 7,2 km/h (2 Bft) N 360 6,8 C 20,1 C 15,4 km/h (3 Bft)
02.06.2023 17:10 23,5 C 20,3 C 22,4 C 20,3 C 43 % 48 % 43 % 1016,9 hPa 0,0 l/m 7,6 km/h (2 Bft) NO 45 7,3 C 20,3 C 13,8 km/h (3 Bft)
02.06.2023 17:08 23,4 C 20,2 C 22,4 C 20,2 C 43 % 48 % 43 % 1016,8 hPa 0,0 l/m 8,0 km/h (2 Bft) N-NO 22 7,2 C 20,2 C 14,0 km/h (3 Bft)
02.06.2023 17:06 23,3 C 20,3 C 22,3 C 20,3 C 43 % 49 % 43 % 1016,8 hPa 0,0 l/m 8,9 km/h (2 Bft) NO 45 7,3 C 20,3 C 14,0 km/h (3 Bft)
02.06.2023 17:04 23,6 C 20,3 C 22,3 C 20,3 C 43 % 49 % 43 % 1016,8 hPa 0,0 l/m 8,9 km/h (2 Bft) N 360 7,3 C 20,3 C 8,0 km/h (2 Bft)
02.06.2023 17:02 23,6 C 20,2 C 22,3 C 20,2 C 41 % 49 % 41 % 1016,8 hPa 0,0 l/m 9,0 km/h (2 Bft) NO 45 6,5 C 20,2 C 17,6 km/h (3 Bft)
02.06.2023 17:00 23,5 C 20,3 C 22,3 C 20,3 C 42 % 49 % 42 % 1016,8 hPa 0,0 l/m 9,0 km/h (2 Bft) N 360 7,0 C 20,3 C 16,4 km/h (3 Bft)
_ Min-Zeit 05:34 05:36 05:46 05:36 11:42 15:48 11:42 17:00 - 22:12 - - 10:28 05:36 22:02
Minimum _ 7,3 C 8,8 C 9,0 C 8,8 C 36 % 41 % 36 % 1016,8 hPa - 0,0 km/h (0 Bft) - - -1,8 C 8,8 C 0,0 km/h (0 Bft)
_ Max-Zeit 13:40 17:00 17:08 17:00 03:42 03:52 03:42 06:50 17:00 17:42 - - 18:08 17:00 09:46
Maximum _ 29,7 C 20,3 C 22,4 C 20,3 C 62 % 73 % 62 % 1021,9 hPa 0,0 l/m 11,6 km/h
N-NO (2 Bft)
- - 7,4 C 20,3 C 29,7 km/h
O-NO (5 Bft)
Durchschnitt _ 15,9 C 14,1 C 15,1 C 14,1 C 48 % 57 % 48 % 1019,9 hPa #0,0 l/m 5,4 km/h (1 Bft) NO - 3,1 C 14,1 C 11,9 km/h (2 Bft)